| time (UTC) | temp F | wind direction | speed MPH | gust MPH | rain 1hr in | rain 24hr in | rain mn in | humidity % | barometer mb |
| 20260502170503 | 64 | 276 | 7.0 | 15.0 | 0.00 | 0.00 | 0.00 | 48 | 1009.9 |
| 20260502170403 | 64 | 273 | 6.0 | 15.0 | 0.00 | 0.00 | 0.00 | 49 | 1009.9 |
| 20260502170303 | 64 | 270 | 6.0 | 16.0 | 0.00 | 0.00 | 0.00 | 49 | 1009.9 |
| 20260502170204 | 63 | 271 | 6.0 | 16.0 | 0.00 | 0.00 | 0.00 | 49 | 1009.9 |
| 20260502164303 | 62 | 279 | 11.0 | 12.0 | 0.00 | 0.00 | 0.00 | 49 | 1009.9 |
| 20260502164103 | 62 | 277 | 3.0 | 12.0 | 0.00 | 0.00 | 0.00 | 49 | 1009.9 |
| 20260502164003 | 62 | 274 | 4.0 | 12.0 | 0.00 | 0.00 | 0.00 | 51 | 1009.9 |
| 20260502163903 | 62 | 272 | 3.0 | 16.0 | 0.00 | 0.00 | 0.00 | 51 | 1009.9 |
| 20260502163703 | 62 | 270 | 6.0 | 16.0 | 0.00 | 0.00 | 0.00 | 51 | 1009.9 |
| 20260502163503 | 62 | 275 | 11.0 | 16.0 | 0.00 | 0.00 | 0.00 | 49 | 1009.9 |
| 20260502163403 | 61 | 285 | 5.0 | 16.0 | 0.00 | 0.00 | 0.00 | 51 | 1009.9 |
| 20260502163303 | 61 | 290 | 7.0 | 16.0 | 0.00 | 0.00 | 0.00 | 51 | 1009.9 |
| 20260502163203 | 61 | 287 | 6.0 | 16.0 | 0.00 | 0.00 | 0.00 | 49 | 1009.9 |
| 20260502163103 | 61 | 284 | 10.0 | 16.0 | 0.00 | 0.00 | 0.00 | 51 | 1009.9 |
| 20260502163004 | 61 | 286 | 12.0 | 16.0 | 0.00 | 0.00 | 0.00 | 51 | 1009.9 |
| 20260502162903 | 61 | 289 | 10.0 | 16.0 | 0.00 | 0.00 | 0.00 | 51 | 1009.9 |
| 20260502162803 | 61 | 296 | 8.0 | 16.0 | 0.00 | 0.00 | 0.00 | 51 | 1009.9 |
| 20260502162703 | 61 | 301 | 7.0 | 16.0 | 0.00 | 0.00 | 0.00 | 51 | 1009.9 |
| 20260502162603 | 61 | 298 | 6.0 | 16.0 | 0.00 | 0.00 | 0.00 | 51 | 1009.9 |
| 20260502162403 | 61 | 283 | 6.0 | 11.0 | 0.00 | 0.00 | 0.00 | 51 | 1009.9 |
| 20260502162304 | 61 | 280 | 7.0 | 11.0 | 0.00 | 0.00 | 0.00 | 51 | 1009.9 |
| 20260502162203 | 61 | 288 | 8.0 | 12.0 | 0.00 | 0.00 | 0.00 | 51 | 1009.9 |
| 20260502162103 | 61 | 291 | 3.0 | 12.0 | 0.00 | 0.00 | 0.00 | 51 | 1009.9 |
| 20260502162004 | 61 | 294 | 8.0 | 12.0 | 0.00 | 0.00 | 0.00 | 51 | 1009.9 |
| 20260502161903 | 60 | 298 | 10.0 | 12.0 | 0.00 | 0.00 | 0.00 | 51 | 1009.9 |
| 20260502161803 | 60 | 300 | 8.0 | 12.0 | 0.00 | 0.00 | 0.00 | 51 | 1009.9 |
| 20260502161703 | 60 | 302 | 8.0 | 12.0 | 0.00 | 0.00 | 0.00 | 51 | 1009.9 |
| 20260502161603 | 60 | 293 | 5.0 | 16.0 | 0.00 | 0.00 | 0.00 | 51 | 1009.9 |
| 20260502161503 | 60 | 297 | 4.0 | 16.0 | 0.00 | 0.00 | 0.00 | 51 | 1009.9 |
| 20260502161403 | 60 | 297 | 6.0 | 16.0 | 0.00 | 0.00 | 0.00 | 49 | 1009.9 |
| 20260502161303 | 60 | 298 | 9.0 | 16.0 | 0.00 | 0.00 | 0.00 | 51 | 1009.9 |
| 20260502161104 | 60 | 290 | 6.0 | 16.0 | 0.00 | 0.00 | 0.00 | 52 | 1009.9 |
| 20260502161004 | 60 | 287 | 9.0 | 16.0 | 0.00 | 0.00 | 0.00 | 51 | 1009.9 |
| 20260502160903 | 60 | 285 | 11.0 | 16.0 | 0.00 | 0.00 | 0.00 | 51 | 1009.9 |
| 20260502160803 | 60 | 274 | 10.0 | 17.0 | 0.00 | 0.00 | 0.00 | 52 | 1009.9 |
| 20260502160703 | 60 | 269 | 9.0 | 18.0 | 0.00 | 0.00 | 0.00 | 51 | 1009.9 |
| 20260502160603 | 60 | 271 | 5.0 | 18.0 | 0.00 | 0.00 | 0.00 | 51 | 1009.9 |
| 20260502160503 | 60 | 269 | 4.0 | 18.0 | 0.00 | 0.00 | 0.00 | 51 | 1009.9 |
| 20260502160403 | 60 | 269 | 6.0 | 18.0 | 0.00 | 0.00 | 0.00 | 51 | 1009.9 |
| 20260502160303 | 59 | 268 | 7.0 | 18.0 | 0.00 | 0.00 | 0.00 | 51 | 1009.9 |
| 20260502160204 | 59 | 268 | 12.0 | 18.0 | 0.00 | 0.00 | 0.00 | 51 | 1009.9 |
| 20260502152305 | 56 | 263 | 8.0 | 17.0 | 0.00 | 0.00 | 0.00 | 55 | 1009.9 |
| 20260502152203 | 56 | 260 | 12.0 | 17.0 | 0.00 | 0.00 | 0.00 | 55 | 1009.9 |
| 20260502152103 | 56 | 260 | 8.0 | 16.0 | 0.00 | 0.00 | 0.00 | 54 | 1009.9 |
| 20260502152004 | 56 | 261 | 8.0 | 16.0 | 0.00 | 0.00 | 0.00 | 55 | 1009.9 |
| 20260502151803 | 56 | 259 | 10.0 | 17.0 | 0.00 | 0.00 | 0.00 | 55 | 1009.9 |
| 20260502151703 | 56 | 258 | 11.0 | 17.0 | 0.00 | 0.00 | 0.00 | 56 | 1009.9 |
| 20260502151603 | 56 | 260 | 11.0 | 17.0 | 0.00 | 0.00 | 0.00 | 56 | 1009.9 |
| 20260502151403 | 56 | 258 | 12.0 | 17.0 | 0.00 | 0.00 | 0.00 | 56 | 1009.9 |
| 20260502151303 | 55 | 256 | 13.0 | 17.0 | 0.00 | 0.00 | 0.00 | 56 | 1009.9 |
| 20260502151103 | 55 | 259 | 6.0 | 17.0 | 0.00 | 0.00 | 0.00 | 58 | 1009.9 |
| 20260502151003 | 55 | 256 | 7.0 | 17.0 | 0.00 | 0.00 | 0.00 | 58 | 1009.9 |
| 20260502150803 | 55 | 260 | 7.0 | 17.0 | 0.00 | 0.00 | 0.00 | 59 | 1009.9 |
| 20260502150704 | 54 | 261 | 9.0 | 17.0 | 0.00 | 0.00 | 0.00 | 58 | 1009.9 |
| 20260502150604 | 54 | 262 | 10.0 | 17.0 | 0.00 | 0.00 | 0.00 | 58 | 1009.9 |
| 20260502150503 | 54 | 261 | 10.0 | 17.0 | 0.00 | 0.00 | 0.00 | 58 | 1009.9 |
| 20260502150303 | 54 | 260 | 10.0 | 17.0 | 0.00 | 0.00 | 0.00 | 59 | 1009.9 |
| 20260502150204 | 54 | 259 | 7.0 | 17.0 | 0.00 | 0.00 | 0.00 | 58 | 1009.9 |
| 20260502150104 | 54 | 255 | 9.0 | 17.0 | 0.00 | 0.00 | 0.00 | 58 | 1009.9 |
| 20260502140104 | 47 | 262 | 9.0 | 12.0 | 0.00 | 0.00 | 0.00 | 68 | 1008.8 |
| 20260502130703 | 41 | 0 | 0.0 | 0.0 | 0.00 | 0.00 | 0.00 | 70 | 1008.8 |
| 20260502130603 | 41 | 0 | 0.0 | 0.0 | 0.00 | 0.00 | 0.00 | 70 | 1008.8 |
| 20260502130403 | 41 | 0 | 0.0 | 0.0 | 0.00 | 0.00 | 0.00 | 69 | 1008.8 |
| 20260502130303 | 41 | 0 | 0.0 | 0.0 | 0.00 | 0.00 | 0.00 | 69 | 1008.8 |
| 20260502130204 | 41 | 0 | 0.0 | 0.0 | 0.00 | 0.00 | 0.00 | 70 | 1008.8 |
| 20260502123804 | 41 | 206 | 0.0 | 4.0 | 0.00 | 0.00 | 0.00 | 68 | 1008.8 |
| 20260502123703 | 41 | 206 | 0.0 | 4.0 | 0.00 | 0.00 | 0.00 | 68 | 1008.8 |
| 20260502123603 | 41 | 206 | 0.0 | 4.0 | 0.00 | 0.00 | 0.00 | 67 | 1008.8 |
| 20260502123503 | 41 | 206 | 0.0 | 4.0 | 0.00 | 0.00 | 0.00 | 67 | 1008.8 |
| 20260502123403 | 41 | 206 | 0.0 | 4.0 | 0.00 | 0.00 | 0.00 | 67 | 1008.8 |
| 20260502123303 | 41 | 206 | 1.0 | 4.0 | 0.00 | 0.00 | 0.00 | 67 | 1008.8 |
| 20260502123203 | 41 | 209 | 3.0 | 4.0 | 0.00 | 0.00 | 0.00 | 67 | 1008.8 |
| 20260502123003 | 42 | 229 | 0.0 | 4.0 | 0.00 | 0.00 | 0.00 | 66 | 1008.8 |
| 20260502122903 | 42 | 252 | 2.0 | 4.0 | 0.00 | 0.00 | 0.00 | 66 | 1008.8 |
| 20260502122803 | 42 | 291 | 0.0 | 6.0 | 0.00 | 0.00 | 0.00 | 66 | 1008.8 |
| 20260502122704 | 42 | 306 | 0.0 | 6.0 | 0.00 | 0.00 | 0.00 | 66 | 1008.8 |
| 20260502122603 | 42 | 306 | 0.0 | 6.0 | 0.00 | 0.00 | 0.00 | 66 | 1008.8 |
| 20260502122503 | 42 | 306 | 0.0 | 6.0 | 0.00 | 0.00 | 0.00 | 66 | 1008.8 |
| 20260502122403 | 42 | 312 | 0.0 | 6.0 | 0.00 | 0.00 | 0.00 | 66 | 1008.8 |
| 20260502122306 | 42 | 318 | 0.0 | 6.0 | 0.00 | 0.00 | 0.00 | 66 | 1008.8 |
| 20260502122203 | 41 | 325 | 0.0 | 6.0 | 0.00 | 0.00 | 0.00 | 66 | 1008.8 |
| 20260502121903 | 41 | 333 | 0.0 | 6.0 | 0.00 | 0.00 | 0.00 | 66 | 1008.8 |
| 20260502121703 | 41 | 340 | 0.0 | 6.0 | 0.00 | 0.00 | 0.00 | 67 | 1008.8 |
| 20260502121603 | 41 | 342 | 1.0 | 6.0 | 0.00 | 0.00 | 0.00 | 68 | 1008.8 |
| 20260502121503 | 40 | 342 | 1.0 | 6.0 | 0.00 | 0.00 | 0.00 | 67 | 1008.8 |
| 20260502121403 | 40 | 341 | 4.0 | 6.0 | 0.00 | 0.00 | 0.00 | 67 | 1008.8 |
| 20260502121304 | 40 | 342 | 4.0 | 6.0 | 0.00 | 0.00 | 0.00 | 67 | 1008.8 |
| 20260502121203 | 40 | 344 | 4.0 | 5.0 | 0.00 | 0.00 | 0.00 | 67 | 1008.8 |
| 20260502120903 | 40 | 354 | 1.0 | 5.0 | 0.00 | 0.00 | 0.00 | 67 | 1008.8 |
| 20260502120803 | 40 | 353 | 4.0 | 5.0 | 0.00 | 0.00 | 0.00 | 67 | 1008.8 |
| 20260502120603 | 40 | 0 | 0.0 | 0.0 | 0.00 | 0.00 | 0.00 | 67 | 1008.8 |
| 20260502120503 | 39 | 0 | 0.0 | 0.0 | 0.00 | 0.00 | 0.00 | 67 | 1008.8 |
| 20260502120403 | 39 | 0 | 0.0 | 0.0 | 0.00 | 0.00 | 0.00 | 67 | 1008.8 |
| 20260502120304 | 39 | 0 | 0.0 | 0.0 | 0.00 | 0.00 | 0.00 | 67 | 1008.8 |
| 20260502120203 | 39 | 0 | 0.0 | 0.0 | 0.00 | 0.00 | 0.00 | 67 | 1008.8 |
| 20260502115903 | 39 | 0 | 0.0 | 0.0 | 0.00 | 0.00 | 0.00 | 66 | 1008.8 |
| 20260502115803 | 39 | 0 | 0.0 | 0.0 | 0.00 | 0.00 | 0.00 | 66 | 1008.8 |
| 20260502115703 | 39 | 0 | 0.0 | 0.0 | 0.00 | 0.00 | 0.00 | 66 | 1008.8 |
| 20260502115604 | 40 | 0 | 0.0 | 0.0 | 0.00 | 0.00 | 0.00 | 66 | 1008.8 |
| 20260502115503 | 40 | 0 | 0.0 | 0.0 | 0.00 | 0.00 | 0.00 | 66 | 1007.7 |
| 20260502115403 | 40 | 0 | 0.0 | 0.0 | 0.00 | 0.00 | 0.00 | 66 | 1007.7 |
| 20260502115306 | 40 | 0 | 0.0 | 0.0 | 0.00 | 0.00 | 0.00 | 66 | 1007.7 |
| 20260502115203 | 40 | 0 | 0.0 | 0.0 | 0.00 | 0.00 | 0.00 | 66 | 1007.7 |
| 20260502114903 | 40 | 0 | 0.0 | 0.0 | 0.00 | 0.00 | 0.00 | 65 | 1007.7 |
| 20260502114803 | 40 | 0 | 0.0 | 0.0 | 0.00 | 0.00 | 0.00 | 66 | 1007.7 |
| 20260502114703 | 40 | 0 | 0.0 | 0.0 | 0.00 | 0.00 | 0.00 | 65 | 1007.7 |
| 20260502114604 | 40 | 0 | 0.0 | 0.0 | 0.00 | 0.00 | 0.00 | 65 | 1007.7 |
| 20260502114503 | 41 | 0 | 0.0 | 0.0 | 0.00 | 0.00 | 0.00 | 65 | 1007.7 |
| 20260502114303 | 41 | 90 | 0.0 | 4.0 | 0.00 | 0.00 | 0.00 | 65 | 1007.7 |
| 20260502114203 | 41 | 84 | 0.0 | 4.0 | 0.00 | 0.00 | 0.00 | 65 | 1007.7 |
| 20260502114103 | 41 | 85 | 0.0 | 4.0 | 0.00 | 0.00 | 0.00 | 65 | 1007.7 |
| 20260502114004 | 41 | 84 | 0.0 | 4.0 | 0.00 | 0.00 | 0.00 | 65 | 1007.7 |
| 20260502113903 | 41 | 83 | 0.0 | 4.0 | 0.00 | 0.00 | 0.00 | 63 | 1007.7 |
| 20260502113703 | 41 | 87 | 0.0 | 6.0 | 0.00 | 0.00 | 0.00 | 63 | 1007.7 |
| 20260502113604 | 41 | 85 | 0.0 | 6.0 | 0.00 | 0.00 | 0.00 | 63 | 1007.7 |
| 20260502113403 | 41 | 86 | 0.0 | 6.0 | 0.00 | 0.00 | 0.00 | 62 | 1007.7 |
| 20260502113303 | 41 | 87 | 1.0 | 6.0 | 0.00 | 0.00 | 0.00 | 62 | 1007.7 |
| 20260502113203 | 41 | 87 | 3.0 | 6.0 | 0.00 | 0.00 | 0.00 | 62 | 1007.7 |
| 20260502113104 | 41 | 88 | 0.0 | 6.0 | 0.00 | 0.00 | 0.00 | 62 | 1007.7 |
| 20260502113004 | 42 | 88 | 0.0 | 6.0 | 0.00 | 0.00 | 0.00 | 62 | 1007.7 |
| 20260502112803 | 42 | 88 | 5.0 | 6.0 | 0.00 | 0.00 | 0.00 | 62 | 1007.7 |
| 20260502112703 | 42 | 88 | 6.0 | 6.0 | 0.00 | 0.00 | 0.00 | 62 | 1007.7 |
| 20260502112603 | 42 | 89 | 6.0 | 6.0 | 0.00 | 0.00 | 0.00 | 62 | 1007.7 |
| 20260502112503 | 42 | 90 | 6.0 | 6.0 | 0.00 | 0.00 | 0.00 | 62 | 1007.7 |
| 20260502112404 | 42 | 90 | 5.0 | 6.0 | 0.00 | 0.00 | 0.00 | 62 | 1007.7 |
| 20260502112305 | 42 | 90 | 4.0 | 6.0 | 0.00 | 0.00 | 0.00 | 62 | 1007.7 |
| 20260502112203 | 42 | 90 | 4.0 | 5.0 | 0.00 | 0.00 | 0.00 | 62 | 1007.7 |
| 20260502112103 | 42 | 89 | 3.0 | 5.0 | 0.00 | 0.00 | 0.00 | 62 | 1007.7 |
| 20260502112003 | 42 | 90 | 2.0 | 5.0 | 0.00 | 0.00 | 0.00 | 62 | 1007.7 |
| 20260502111903 | 42 | 0 | 0.0 | 0.0 | 0.00 | 0.00 | 0.00 | 62 | 1007.7 |
| 20260502111803 | 42 | 0 | 0.0 | 0.0 | 0.00 | 0.00 | 0.00 | 62 | 1007.7 |
| 20260502111603 | 42 | 0 | 0.0 | 0.0 | 0.00 | 0.00 | 0.00 | 62 | 1007.7 |
| 20260502111403 | 42 | 0 | 0.0 | 0.0 | 0.00 | 0.00 | 0.00 | 62 | 1007.7 |
| 20260502111303 | 42 | 0 | 0.0 | 0.0 | 0.00 | 0.00 | 0.00 | 62 | 1007.7 |
| 20260502111203 | 42 | 0 | 0.0 | 0.0 | 0.00 | 0.00 | 0.00 | 62 | 1007.7 |
| 20260502111004 | 42 | 0 | 0.0 | 0.0 | 0.00 | 0.00 | 0.00 | 62 | 1007.7 |
| 20260502110903 | 42 | 68 | 0.0 | 4.0 | 0.00 | 0.00 | 0.00 | 61 | 1007.7 |
| 20260502110804 | 42 | 68 | 0.0 | 4.0 | 0.00 | 0.00 | 0.00 | 61 | 1007.7 |
| 20260502110703 | 42 | 68 | 0.0 | 4.0 | 0.00 | 0.00 | 0.00 | 61 | 1007.7 |
| 20260502110603 | 42 | 68 | 0.0 | 4.0 | 0.00 | 0.00 | 0.00 | 61 | 1007.7 |
| 20260502110503 | 42 | 68 | 0.0 | 4.0 | 0.00 | 0.00 | 0.00 | 61 | 1007.7 |
| 20260502110403 | 42 | 68 | 0.0 | 4.0 | 0.00 | 0.00 | 0.00 | 61 | 1007.7 |
| 20260502110303 | 42 | 68 | 0.0 | 4.0 | 0.00 | 0.00 | 0.00 | 61 | 1007.7 |
| 20260502110203 | 42 | 68 | 0.0 | 4.0 | 0.00 | 0.00 | 0.00 | 61 | 1007.7 |
| 20260502110103 | 42 | 68 | 0.0 | 4.0 | 0.00 | 0.00 | 0.00 | 61 | 1007.7 |
| 20260502110004 | 42 | 68 | 1.0 | 4.0 | 0.00 | 0.00 | 0.00 | 61 | 1007.7 |
| 20260502105903 | 42 | 0 | 0.0 | 0.0 | 0.00 | 0.00 | 0.00 | 61 | 1007.7 |
| 20260502105804 | 42 | 0 | 0.0 | 0.0 | 0.00 | 0.00 | 0.00 | 61 | 1007.7 |
| 20260502105703 | 42 | 0 | 0.0 | 0.0 | 0.00 | 0.00 | 0.00 | 61 | 1007.7 |
| 20260502105603 | 42 | 46 | 0.0 | 2.0 | 0.00 | 0.00 | 0.00 | 61 | 1007.7 |
| 20260502105503 | 43 | 46 | 0.0 | 2.0 | 0.00 | 0.00 | 0.00 | 61 | 1007.7 |
| 20260502105404 | 43 | 46 | 0.0 | 2.0 | 0.00 | 0.00 | 0.00 | 61 | 1007.7 |
| 20260502105305 | 43 | 46 | 0.0 | 2.0 | 0.00 | 0.00 | 0.00 | 61 | 1007.7 |
| 20260502105203 | 43 | 46 | 0.0 | 2.0 | 0.00 | 0.00 | 0.00 | 61 | 1007.7 |
| 20260502105103 | 43 | 46 | 0.0 | 2.0 | 0.00 | 0.00 | 0.00 | 61 | 1007.7 |
| 20260502105003 | 43 | 46 | 0.0 | 2.0 | 0.00 | 0.00 | 0.00 | 61 | 1007.7 |
| 20260502104903 | 43 | 46 | 0.0 | 2.0 | 0.00 | 0.00 | 0.00 | 61 | 1007.7 |
| 20260502104803 | 43 | 46 | 0.0 | 2.0 | 0.00 | 0.00 | 0.00 | 61 | 1007.7 |
| 20260502104603 | 42 | 40 | 0.0 | 2.0 | 0.00 | 0.00 | 0.00 | 61 | 1007.7 |
| 20260502104503 | 42 | 34 | 0.0 | 2.0 | 0.00 | 0.00 | 0.00 | 61 | 1007.7 |
| 20260502104403 | 42 | 34 | 0.0 | 2.0 | 0.00 | 0.00 | 0.00 | 62 | 1007.7 |
| 20260502104203 | 42 | 34 | 0.0 | 2.0 | 0.00 | 0.00 | 0.00 | 62 | 1007.7 |
| 20260502104103 | 42 | 34 | 0.0 | 2.0 | 0.00 | 0.00 | 0.00 | 61 | 1007.7 |
| 20260502104004 | 42 | 34 | 0.0 | 2.0 | 0.00 | 0.00 | 0.00 | 61 | 1008.8 |
| 20260502103903 | 42 | 23 | 0.0 | 2.0 | 0.00 | 0.00 | 0.00 | 61 | 1008.8 |
| 20260502103803 | 43 | 23 | 0.0 | 2.0 | 0.00 | 0.00 | 0.00 | 61 | 1008.8 |
| 20260502103703 | 43 | 22 | 0.0 | 2.0 | 0.00 | 0.00 | 0.00 | 61 | 1008.8 |
| 20260502103604 | 43 | 23 | 0.0 | 2.0 | 0.00 | 0.00 | 0.00 | 61 | 1008.8 |
| 20260502103504 | 43 | 19 | 0.0 | 2.0 | 0.00 | 0.00 | 0.00 | 61 | 1008.8 |
| 20260502103403 | 43 | 19 | 0.0 | 2.0 | 0.00 | 0.00 | 0.00 | 61 | 1008.8 |
| 20260502103303 | 43 | 19 | 0.0 | 2.0 | 0.00 | 0.00 | 0.00 | 61 | 1008.8 |
| 20260502103203 | 43 | 19 | 0.0 | 2.0 | 0.00 | 0.00 | 0.00 | 61 | 1008.8 |
| 20260502103103 | 43 | 19 | 0.0 | 2.0 | 0.00 | 0.00 | 0.00 | 61 | 1008.8 |
| 20260502103004 | 43 | 19 | 0.0 | 2.0 | 0.00 | 0.00 | 0.00 | 61 | 1008.8 |
| 20260502102903 | 42 | 19 | 0.0 | 2.0 | 0.00 | 0.00 | 0.00 | 61 | 1008.8 |
| 20260502102803 | 42 | 21 | 1.0 | 2.0 | 0.00 | 0.00 | 0.00 | 61 | 1008.8 |
| 20260502102603 | 42 | 21 | 1.0 | 2.0 | 0.00 | 0.00 | 0.00 | 61 | 1008.8 |
| 20260502102503 | 42 | 38 | 0.0 | 2.0 | 0.00 | 0.00 | 0.00 | 61 | 1008.8 |
| 20260502102404 | 42 | 34 | 0.0 | 1.0 | 0.00 | 0.00 | 0.00 | 61 | 1008.8 |
| 20260502102306 | 42 | 34 | 0.0 | 1.0 | 0.00 | 0.00 | 0.00 | 61 | 1008.8 |
| 20260502102203 | 42 | 34 | 0.0 | 1.0 | 0.00 | 0.00 | 0.00 | 61 | 1008.8 |
| 20260502102103 | 42 | 34 | 0.0 | 1.0 | 0.00 | 0.00 | 0.00 | 61 | 1008.8 |
| 20260502101903 | 41 | 35 | 0.0 | 3.0 | 0.00 | 0.00 | 0.00 | 61 | 1008.8 |
| 20260502101703 | 41 | 34 | 0.0 | 3.0 | 0.00 | 0.00 | 0.00 | 61 | 1008.8 |
| 20260502101604 | 41 | 34 | 0.0 | 3.0 | 0.00 | 0.00 | 0.00 | 61 | 1008.8 |
| 20260502101503 | 41 | 34 | 0.0 | 3.0 | 0.00 | 0.00 | 0.00 | 61 | 1008.8 |
| 20260502101403 | 41 | 34 | 0.0 | 3.0 | 0.00 | 0.00 | 0.00 | 61 | 1008.8 |
| 20260502101303 | 42 | 34 | 0.0 | 3.0 | 0.00 | 0.00 | 0.00 | 61 | 1008.8 |
| 20260502100903 | 43 | 0 | 0.0 | 0.0 | 0.00 | 0.00 | 0.00 | 61 | 1008.8 |
| 20260502100803 | 43 | 270 | 0.0 | 1.0 | 0.00 | 0.00 | 0.00 | 61 | 1008.8 |
| 20260502100703 | 43 | 270 | 0.0 | 5.0 | 0.00 | 0.00 | 0.00 | 61 | 1008.8 |
| 20260502100604 | 43 | 265 | 0.0 | 5.0 | 0.00 | 0.00 | 0.00 | 60 | 1008.8 |
| 20260502100403 | 43 | 266 | 0.0 | 5.0 | 0.00 | 0.00 | 0.00 | 60 | 1008.8 |
| 20260502100204 | 43 | 266 | 0.0 | 5.0 | 0.00 | 0.00 | 0.00 | 60 | 1008.8 |
| 20260502091503 | 45 | 0 | 0.0 | 0.0 | 0.00 | 0.00 | 0.00 | 53 | 1007.7 |
| 20260502091303 | 45 | 0 | 0.0 | 0.0 | 0.00 | 0.00 | 0.00 | 53 | 1007.7 |
| 20260502091203 | 45 | 0 | 0.0 | 0.0 | 0.00 | 0.00 | 0.00 | 53 | 1007.7 |
| 20260502091103 | 46 | 0 | 0.0 | 0.0 | 0.00 | 0.00 | 0.00 | 53 | 1007.7 |
| 20260502091004 | 46 | 0 | 0.0 | 0.0 | 0.00 | 0.00 | 0.00 | 53 | 1008.8 |
| 20260502090903 | 46 | 0 | 0.0 | 0.0 | 0.00 | 0.00 | 0.00 | 52 | 1008.8 |
| 20260502090703 | 46 | 0 | 0.0 | 0.0 | 0.00 | 0.00 | 0.00 | 52 | 1008.8 |
| 20260502090603 | 46 | 0 | 0.0 | 0.0 | 0.00 | 0.00 | 0.00 | 52 | 1008.8 |
| 20260502090504 | 46 | 0 | 0.0 | 0.0 | 0.00 | 0.00 | 0.00 | 52 | 1008.8 |
| 20260502090403 | 46 | 0 | 0.0 | 0.0 | 0.00 | 0.00 | 0.00 | 52 | 1008.8 |
| 20260502090304 | 46 | 0 | 0.0 | 0.0 | 0.00 | 0.00 | 0.00 | 52 | 1008.8 |
| 20260502090203 | 46 | 0 | 0.0 | 0.0 | 0.00 | 0.00 | 0.00 | 52 | 1008.8 |
| 20260502071503 | 48 | 0 | 0.0 | 0.0 | 0.00 | 0.00 | 0.00 | 48 | 1009.9 |
| 20260502071404 | 49 | 0 | 0.0 | 0.0 | 0.00 | 0.00 | 0.00 | 48 | 1009.9 |
| 20260502071303 | 49 | 0 | 0.0 | 0.0 | 0.00 | 0.00 | 0.00 | 47 | 1009.9 |
| 20260502071203 | 49 | 0 | 0.0 | 0.0 | 0.00 | 0.00 | 0.00 | 47 | 1009.9 |
| 20260502071103 | 49 | 0 | 0.0 | 0.0 | 0.00 | 0.00 | 0.00 | 47 | 1009.9 |
| 20260502071004 | 49 | 0 | 0.0 | 0.0 | 0.00 | 0.00 | 0.00 | 47 | 1009.9 |
| 20260502070904 | 49 | 0 | 0.0 | 0.0 | 0.00 | 0.00 | 0.00 | 47 | 1009.9 |
| 20260502070804 | 49 | 0 | 0.0 | 0.0 | 0.00 | 0.00 | 0.00 | 47 | 1009.9 |
| 20260502070703 | 49 | 0 | 0.0 | 0.0 | 0.00 | 0.00 | 0.00 | 47 | 1009.9 |
| 20260502070603 | 49 | 0 | 0.0 | 0.0 | 0.00 | 0.00 | 0.00 | 47 | 1009.9 |
| 20260502070503 | 49 | 135 | 0.0 | 2.0 | 0.00 | 0.00 | 0.00 | 47 | 1009.9 |
| 20260502070403 | 49 | 143 | 0.0 | 4.0 | 0.00 | 0.00 | 0.00 | 47 | 1009.9 |
| 20260502070203 | 49 | 96 | 0.0 | 5.0 | 0.00 | 0.00 | 0.00 | 47 | 1009.9 |
| 20260502065903 | 49 | 89 | 0.0 | 5.0 | 0.00 | 0.00 | 0.00 | 47 | 1009.9 |
| 20260502065803 | 49 | 89 | 0.0 | 5.0 | 0.00 | 0.00 | 0.00 | 48 | 1009.9 |
| 20260502065703 | 49 | 89 | 0.0 | 5.0 | 0.00 | 0.00 | 0.00 | 48 | 1009.9 |
| 20260502065603 | 49 | 89 | 1.0 | 5.0 | 0.00 | 0.00 | 0.00 | 48 | 1009.9 |
| 20260502065504 | 49 | 84 | 3.0 | 5.0 | 0.00 | 0.00 | 0.00 | 47 | 1008.8 |
| 20260502065404 | 49 | 62 | 1.0 | 5.0 | 0.00 | 0.00 | 0.00 | 47 | 1008.8 |
| 20260502065306 | 49 | 77 | 0.0 | 2.0 | 0.00 | 0.00 | 0.00 | 47 | 1008.8 |
| 20260502065203 | 49 | 47 | 1.0 | 2.0 | 0.00 | 0.00 | 0.00 | 47 | 1008.8 |
| 20260502065104 | 49 | 90 | 0.0 | 2.0 | 0.00 | 0.00 | 0.00 | 47 | 1008.8 |
| 20260502065004 | 50 | 0 | 0.0 | 0.0 | 0.00 | 0.00 | 0.00 | 47 | 1008.8 |
| 20260502064904 | 50 | 0 | 0.0 | 0.0 | 0.00 | 0.00 | 0.00 | 47 | 1008.8 |
| 20260502064803 | 50 | 0 | 0.0 | 0.0 | 0.00 | 0.00 | 0.00 | 47 | 1008.8 |
| 20260502064703 | 50 | 0 | 0.0 | 0.0 | 0.00 | 0.00 | 0.00 | 47 | 1008.8 |
| 20260502064603 | 50 | 0 | 0.0 | 0.0 | 0.00 | 0.00 | 0.00 | 47 | 1008.8 |
| 20260502064504 | 50 | 0 | 0.0 | 0.0 | 0.00 | 0.00 | 0.00 | 47 | 1008.8 |
| 20260502064303 | 50 | 0 | 0.0 | 0.0 | 0.00 | 0.00 | 0.00 | 47 | 1008.8 |
| 20260502064203 | 50 | 0 | 0.0 | 0.0 | 0.00 | 0.00 | 0.00 | 47 | 1008.8 |
| 20260502064104 | 50 | 0 | 0.0 | 0.0 | 0.00 | 0.00 | 0.00 | 47 | 1008.8 |
| 20260502064004 | 50 | 0 | 0.0 | 0.0 | 0.00 | 0.00 | 0.00 | 47 | 1009.9 |
| 20260502063904 | 50 | 0 | 0.0 | 0.0 | 0.00 | 0.00 | 0.00 | 47 | 1009.9 |
| 20260502063804 | 50 | 0 | 0.0 | 0.0 | 0.00 | 0.00 | 0.00 | 47 | 1009.9 |
| 20260502063703 | 50 | 0 | 0.0 | 0.0 | 0.00 | 0.00 | 0.00 | 47 | 1009.9 |
| 20260502063603 | 49 | 0 | 0.0 | 0.0 | 0.00 | 0.00 | 0.00 | 47 | 1009.9 |
| 20260502063503 | 49 | 0 | 0.0 | 0.0 | 0.00 | 0.00 | 0.00 | 47 | 1009.9 |
| 20260502063403 | 49 | 0 | 0.0 | 0.0 | 0.00 | 0.00 | 0.00 | 47 | 1009.9 |
| 20260502063304 | 49 | 0 | 0.0 | 0.0 | 0.00 | 0.00 | 0.00 | 47 | 1009.9 |
| 20260502063203 | 49 | 0 | 0.0 | 0.0 | 0.00 | 0.00 | 0.00 | 47 | 1009.9 |
| 20260502063103 | 49 | 0 | 0.0 | 0.0 | 0.00 | 0.00 | 0.00 | 47 | 1009.9 |
| 20260502062903 | 49 | 0 | 0.0 | 0.0 | 0.00 | 0.00 | 0.00 | 47 | 1009.9 |
| 20260502062803 | 49 | 0 | 0.0 | 0.0 | 0.00 | 0.00 | 0.00 | 47 | 1009.9 |
| 20260502062703 | 49 | 0 | 0.0 | 0.0 | 0.00 | 0.00 | 0.00 | 47 | 1009.9 |
| 20260502062603 | 50 | 0 | 0.0 | 0.0 | 0.00 | 0.00 | 0.00 | 47 | 1009.9 |
| 20260502062503 | 50 | 0 | 0.0 | 0.0 | 0.00 | 0.00 | 0.00 | 47 | 1009.9 |
| 20260502062403 | 50 | 0 | 0.0 | 0.0 | 0.00 | 0.00 | 0.00 | 47 | 1009.9 |
| 20260502062306 | 50 | 0 | 0.0 | 0.0 | 0.00 | 0.00 | 0.00 | 47 | 1009.9 |
| 20260502062204 | 49 | 0 | 0.0 | 0.0 | 0.00 | 0.00 | 0.00 | 47 | 1009.9 |
| 20260502062103 | 49 | 0 | 0.0 | 0.0 | 0.00 | 0.00 | 0.00 | 47 | 1009.9 |
| 20260502062003 | 49 | 0 | 0.0 | 0.0 | 0.00 | 0.00 | 0.00 | 47 | 1009.9 |
| 20260502061803 | 49 | 203 | 0.0 | 1.0 | 0.00 | 0.00 | 0.00 | 47 | 1009.9 |
| 20260502061703 | 49 | 183 | 0.0 | 3.0 | 0.00 | 0.00 | 0.00 | 47 | 1009.9 |
| 20260502061604 | 49 | 181 | 0.0 | 3.0 | 0.00 | 0.00 | 0.00 | 47 | 1009.9 |
| 20260502061503 | 49 | 181 | 0.0 | 3.0 | 0.00 | 0.00 | 0.00 | 47 | 1009.9 |
| 20260502061403 | 49 | 181 | 0.0 | 3.0 | 0.00 | 0.00 | 0.00 | 47 | 1009.9 |
| 20260502061303 | 49 | 181 | 0.0 | 3.0 | 0.00 | 0.00 | 0.00 | 48 | 1009.9 |
| 20260502061204 | 49 | 181 | 0.0 | 3.0 | 0.00 | 0.00 | 0.00 | 48 | 1009.9 |
| 20260502061103 | 49 | 181 | 0.0 | 3.0 | 0.00 | 0.00 | 0.00 | 48 | 1009.9 |
| 20260502061004 | 49 | 181 | 0.0 | 3.0 | 0.00 | 0.00 | 0.00 | 48 | 1011.0 |
| 20260502060803 | 49 | 177 | 1.0 | 3.0 | 0.00 | 0.00 | 0.00 | 48 | 1011.0 |
| 20260502060604 | 49 | 0 | 0.0 | 0.0 | 0.00 | 0.00 | 0.00 | 48 | 1011.0 |
| 20260502060503 | 49 | 321 | 0.0 | 4.0 | 0.00 | 0.00 | 0.00 | 48 | 1011.0 |
| 20260502060403 | 49 | 318 | 0.0 | 4.0 | 0.00 | 0.00 | 0.00 | 48 | 1011.0 |
| 20260502060303 | 49 | 312 | 0.0 | 4.0 | 0.00 | 0.00 | 0.00 | 48 | 1011.0 |
| 20260502060204 | 49 | 313 | 0.0 | 4.0 | 0.00 | 0.00 | 0.00 | 48 | 1011.0 |
| 20260502060008 | 50 | 313 | 0.0 | 4.0 | 0.00 | 0.00 | 0.00 | 48 | 1011.0 |
| 20260502055903 | 50 | 313 | 0.0 | 4.0 | 0.00 | 0.00 | 0.00 | 48 | 1011.0 |
| 20260502055803 | 50 | 313 | 0.0 | 4.0 | 0.00 | 0.00 | 0.00 | 48 | 1011.0 |
| 20260502055703 | 50 | 313 | 0.0 | 4.0 | 0.00 | 0.00 | 0.00 | 47 | 1011.0 |
| 20260502055604 | 50 | 313 | 2.0 | 4.0 | 0.00 | 0.00 | 0.00 | 47 | 1011.0 |
| 20260502055504 | 50 | 310 | 3.0 | 4.0 | 0.00 | 0.00 | 0.00 | 47 | 1009.9 |
| 20260502055403 | 50 | 309 | 1.0 | 4.0 | 0.00 | 0.00 | 0.00 | 47 | 1009.9 |
| 20260502055203 | 50 | 314 | 2.0 | 4.0 | 0.00 | 0.00 | 0.00 | 47 | 1009.9 |
| 20260502055103 | 50 | 0 | 0.0 | 0.0 | 0.00 | 0.00 | 0.00 | 47 | 1009.9 |
| 20260502055003 | 50 | 0 | 0.0 | 0.0 | 0.00 | 0.00 | 0.00 | 47 | 1009.9 |
| 20260502054903 | 50 | 0 | 0.0 | 0.0 | 0.00 | 0.00 | 0.00 | 47 | 1009.9 |
| 20260502054804 | 50 | 0 | 0.0 | 0.0 | 0.00 | 0.00 | 0.00 | 47 | 1009.9 |
| 20260502054703 | 50 | 0 | 0.0 | 0.0 | 0.00 | 0.00 | 0.00 | 47 | 1009.9 |
| 20260502054603 | 50 | 0 | 0.0 | 0.0 | 0.00 | 0.00 | 0.00 | 47 | 1009.9 |
| 20260502054503 | 50 | 0 | 0.0 | 0.0 | 0.00 | 0.00 | 0.00 | 47 | 1009.9 |
| 20260502054403 | 50 | 0 | 0.0 | 0.0 | 0.00 | 0.00 | 0.00 | 47 | 1009.9 |
| 20260502054303 | 50 | 0 | 0.0 | 0.0 | 0.00 | 0.00 | 0.00 | 47 | 1009.9 |
| 20260502054203 | 50 | 0 | 0.0 | 0.0 | 0.00 | 0.00 | 0.00 | 47 | 1009.9 |
| 20260502054003 | 50 | 203 | 0.0 | 2.0 | 0.00 | 0.00 | 0.00 | 47 | 1011.0 |
| 20260502053903 | 50 | 203 | 0.0 | 2.0 | 0.00 | 0.00 | 0.00 | 47 | 1011.0 |
| 20260502053803 | 50 | 203 | 0.0 | 2.0 | 0.00 | 0.00 | 0.00 | 48 | 1011.0 |
| 20260502053503 | 50 | 203 | 0.0 | 2.0 | 0.00 | 0.00 | 0.00 | 47 | 1011.0 |
| 20260502053405 | 50 | 203 | 0.0 | 2.0 | 0.00 | 0.00 | 0.00 | 47 | 1011.0 |
| 20260502053303 | 50 | 203 | 0.0 | 2.0 | 0.00 | 0.00 | 0.00 | 47 | 1011.0 |
| 20260502053004 | 50 | 0 | 0.0 | 0.0 | 0.00 | 0.00 | 0.00 | 48 | 1011.0 |
| 20260502052903 | 50 | 0 | 0.0 | 0.0 | 0.00 | 0.00 | 0.00 | 48 | 1011.0 |
| 20260502052804 | 50 | 0 | 0.0 | 0.0 | 0.00 | 0.00 | 0.00 | 48 | 1011.0 |
| 20260502052703 | 50 | 0 | 0.0 | 0.0 | 0.00 | 0.00 | 0.00 | 48 | 1011.0 |
| 20260502052603 | 50 | 0 | 0.0 | 0.0 | 0.00 | 0.00 | 0.00 | 48 | 1011.0 |
| 20260502052503 | 50 | 0 | 0.0 | 0.0 | 0.00 | 0.00 | 0.00 | 48 | 1011.0 |
| 20260502052404 | 50 | 0 | 0.0 | 0.0 | 0.00 | 0.00 | 0.00 | 48 | 1011.0 |
| 20260502052306 | 50 | 184 | 0.0 | 4.0 | 0.00 | 0.00 | 0.00 | 48 | 1011.0 |
| 20260502052203 | 50 | 186 | 0.0 | 4.0 | 0.00 | 0.00 | 0.00 | 48 | 1011.0 |
| 20260502052103 | 50 | 186 | 0.0 | 4.0 | 0.00 | 0.00 | 0.00 | 48 | 1011.0 |
| 20260502052003 | 50 | 186 | 0.0 | 4.0 | 0.00 | 0.00 | 0.00 | 48 | 1011.0 |
| 20260502051903 | 50 | 186 | 0.0 | 4.0 | 0.00 | 0.00 | 0.00 | 48 | 1011.0 |
| 20260502051803 | 50 | 186 | 0.0 | 4.0 | 0.00 | 0.00 | 0.00 | 49 | 1011.0 |
| 20260502051603 | 51 | 185 | 0.0 | 4.0 | 0.00 | 0.00 | 0.00 | 49 | 1011.0 |
| 20260502051503 | 51 | 185 | 0.0 | 4.0 | 0.00 | 0.00 | 0.00 | 49 | 1011.0 |
| 20260502051403 | 50 | 185 | 3.0 | 4.0 | 0.00 | 0.00 | 0.00 | 49 | 1011.0 |
| 20260502051304 | 50 | 190 | 2.0 | 3.0 | 0.00 | 0.00 | 0.00 | 49 | 1011.0 |
| 20260502051203 | 50 | 181 | 0.0 | 3.0 | 0.00 | 0.00 | 0.00 | 49 | 1011.0 |
| 20260502051004 | 50 | 181 | 0.0 | 3.0 | 0.00 | 0.00 | 0.00 | 49 | 1011.0 |
| 20260502050803 | 51 | 159 | 0.0 | 3.0 | 0.00 | 0.00 | 0.00 | 49 | 1011.0 |
| 20260502050703 | 51 | 130 | 0.0 | 1.0 | 0.00 | 0.00 | 0.00 | 49 | 1011.0 |
| 20260502050503 | 50 | 130 | 0.0 | 1.0 | 0.00 | 0.00 | 0.00 | 49 | 1011.0 |
| 20260502050403 | 50 | 130 | 0.0 | 1.0 | 0.00 | 0.00 | 0.00 | 49 | 1011.0 |
| 20260502050303 | 50 | 130 | 0.0 | 1.0 | 0.00 | 0.00 | 0.00 | 49 | 1011.0 |
| 20260502050203 | 50 | 130 | 0.0 | 1.0 | 0.00 | 0.00 | 0.00 | 49 | 1011.0 |
| 20260502050004 | 50 | 130 | 0.0 | 1.0 | 0.00 | 0.00 | 0.00 | 49 | 1011.0 |
| 20260502045903 | 50 | 130 | 1.0 | 1.0 | 0.00 | 0.00 | 0.00 | 49 | 1011.0 |
| 20260502045803 | 50 | 0 | 0.0 | 0.0 | 0.00 | 0.00 | 0.00 | 51 | 1011.0 |
| 20260502045704 | 50 | 112 | 0.0 | 3.0 | 0.00 | 0.00 | 0.00 | 51 | 1011.0 |
| 20260502045603 | 50 | 136 | 0.0 | 5.0 | 0.00 | 0.00 | 0.00 | 51 | 1011.0 |
| 20260502045503 | 50 | 135 | 0.0 | 5.0 | 0.00 | 0.00 | 0.00 | 51 | 1011.0 |
| 20260502045403 | 50 | 135 | 0.0 | 5.0 | 0.00 | 0.00 | 0.00 | 51 | 1011.0 |
| 20260502045306 | 50 | 135 | 0.0 | 5.0 | 0.00 | 0.00 | 0.00 | 51 | 1011.0 |
| 20260502045103 | 50 | 135 | 0.0 | 6.0 | 0.00 | 0.00 | 0.00 | 51 | 1011.0 |
| 20260502045004 | 50 | 132 | 0.0 | 6.0 | 0.00 | 0.00 | 0.00 | 51 | 1011.0 |
| 20260502044904 | 50 | 126 | 0.0 | 6.0 | 0.00 | 0.00 | 0.00 | 52 | 1011.0 |
| 20260502044803 | 50 | 126 | 2.0 | 6.0 | 0.00 | 0.00 | 0.00 | 52 | 1011.0 |
| 20260502044703 | 50 | 128 | 4.0 | 6.0 | 0.00 | 0.00 | 0.00 | 52 | 1011.0 |
| 20260502044603 | 50 | 120 | 1.0 | 6.0 | 0.00 | 0.00 | 0.00 | 52 | 1011.0 |
| 20260502044504 | 50 | 113 | 0.0 | 6.0 | 0.00 | 0.00 | 0.00 | 52 | 1011.0 |
| 20260502044404 | 50 | 109 | 0.0 | 6.0 | 0.00 | 0.00 | 0.00 | 52 | 1011.0 |
| 20260502044304 | 50 | 104 | 2.0 | 6.0 | 0.00 | 0.00 | 0.00 | 51 | 1011.0 |
| 20260502044203 | 50 | 104 | 5.0 | 6.0 | 0.00 | 0.00 | 0.00 | 51 | 1011.0 |
| 20260502044103 | 50 | 95 | 1.0 | 6.0 | 0.00 | 0.00 | 0.00 | 51 | 1011.0 |
| 20260502044004 | 50 | 95 | 1.0 | 6.0 | 0.00 | 0.00 | 0.00 | 51 | 1011.0 |
| 20260502043903 | 50 | 94 | 0.0 | 6.0 | 0.00 | 0.00 | 0.00 | 51 | 1011.0 |
| 20260502043803 | 50 | 97 | 0.0 | 8.0 | 0.00 | 0.00 | 0.00 | 51 | 1011.0 |
| 20260502043604 | 50 | 99 | 0.0 | 8.0 | 0.00 | 0.00 | 0.00 | 51 | 1011.0 |
| 20260502043503 | 50 | 100 | 3.0 | 8.0 | 0.00 | 0.00 | 0.00 | 51 | 1011.0 |
| 20260502043403 | 50 | 102 | 3.0 | 8.0 | 0.00 | 0.00 | 0.00 | 51 | 1011.0 |
| 20260502043303 | 50 | 105 | 4.0 | 8.0 | 0.00 | 0.00 | 0.00 | 51 | 1011.0 |
| 20260502043204 | 50 | 106 | 4.0 | 8.0 | 0.00 | 0.00 | 0.00 | 51 | 1011.0 |
| 20260502042803 | 50 | 113 | 5.0 | 8.0 | 0.00 | 0.00 | 0.00 | 51 | 1011.0 |
| 20260502042703 | 50 | 114 | 5.0 | 6.0 | 0.00 | 0.00 | 0.00 | 51 | 1011.0 |
| 20260502042603 | 50 | 115 | 4.0 | 6.0 | 0.00 | 0.00 | 0.00 | 51 | 1011.0 |
| 20260502042504 | 50 | 115 | 6.0 | 6.0 | 0.00 | 0.00 | 0.00 | 52 | 1011.0 |
| 20260502042306 | 50 | 116 | 5.0 | 6.0 | 0.00 | 0.00 | 0.00 | 51 | 1011.0 |
| 20260502042104 | 50 | 117 | 4.0 | 7.0 | 0.00 | 0.00 | 0.00 | 52 | 1011.0 |
| 20260502041904 | 50 | 116 | 4.0 | 7.0 | 0.00 | 0.00 | 0.00 | 52 | 1011.0 |
| 20260502041803 | 50 | 115 | 5.0 | 7.0 | 0.00 | 0.00 | 0.00 | 52 | 1011.0 |
| 20260502041703 | 50 | 115 | 5.0 | 7.0 | 0.00 | 0.00 | 0.00 | 52 | 1011.0 |
| 20260502041603 | 50 | 116 | 5.0 | 7.0 | 0.00 | 0.00 | 0.00 | 52 | 1011.0 |
| 20260502041503 | 50 | 116 | 5.0 | 7.0 | 0.00 | 0.00 | 0.00 | 52 | 1011.0 |
| 20260502041403 | 50 | 115 | 6.0 | 8.0 | 0.00 | 0.00 | 0.00 | 52 | 1011.0 |
| 20260502041303 | 50 | 115 | 5.0 | 8.0 | 0.00 | 0.00 | 0.00 | 52 | 1011.0 |
| 20260502041104 | 50 | 113 | 5.0 | 8.0 | 0.00 | 0.00 | 0.00 | 52 | 1011.0 |
| 20260502040904 | 50 | 116 | 5.0 | 8.0 | 0.00 | 0.00 | 0.00 | 52 | 1012.1 |
| 20260502040804 | 50 | 115 | 5.0 | 8.0 | 0.00 | 0.00 | 0.00 | 52 | 1012.1 |
| 20260502040603 | 50 | 114 | 6.0 | 8.0 | 0.00 | 0.00 | 0.00 | 52 | 1012.1 |
| 20260502040503 | 50 | 114 | 6.0 | 8.0 | 0.00 | 0.00 | 0.00 | 52 | 1012.1 |
| 20260502040403 | 50 | 113 | 6.0 | 8.0 | 0.00 | 0.00 | 0.00 | 52 | 1012.1 |
| 20260502040303 | 50 | 113 | 6.0 | 8.0 | 0.00 | 0.00 | 0.00 | 53 | 1012.1 |
| 20260502040004 | 50 | 107 | 7.0 | 10.0 | 0.00 | 0.00 | 0.00 | 53 | 1012.1 |
| 20260502035903 | 50 | 104 | 7.0 | 10.0 | 0.00 | 0.00 | 0.00 | 53 | 1012.1 |
| 20260502035804 | 50 | 103 | 7.0 | 10.0 | 0.00 | 0.00 | 0.00 | 52 | 1012.1 |
| 20260502035704 | 50 | 101 | 7.0 | 10.0 | 0.00 | 0.00 | 0.00 | 52 | 1012.1 |
| 20260502035604 | 50 | 99 | 6.0 | 10.0 | 0.00 | 0.00 | 0.00 | 52 | 1012.1 |
| 20260502035403 | 51 | 98 | 6.0 | 10.0 | 0.00 | 0.00 | 0.00 | 52 | 1011.0 |
| 20260502035306 | 51 | 99 | 8.0 | 10.0 | 0.00 | 0.00 | 0.00 | 52 | 1011.0 |
| 20260502035203 | 51 | 100 | 6.0 | 8.0 | 0.00 | 0.00 | 0.00 | 52 | 1011.0 |
| 20260502035103 | 51 | 100 | 7.0 | 8.0 | 0.00 | 0.00 | 0.00 | 52 | 1011.0 |
| 20260502035004 | 51 | 99 | 6.0 | 9.0 | 0.00 | 0.00 | 0.00 | 52 | 1011.0 |
| 20260502034903 | 51 | 100 | 6.0 | 9.0 | 0.00 | 0.00 | 0.00 | 52 | 1011.0 |
| 20260502034803 | 51 | 101 | 6.0 | 9.0 | 0.00 | 0.00 | 0.00 | 52 | 1011.0 |
| 20260502034704 | 51 | 101 | 6.0 | 9.0 | 0.00 | 0.00 | 0.00 | 52 | 1011.0 |
| 20260502034604 | 51 | 101 | 6.0 | 9.0 | 0.00 | 0.00 | 0.00 | 52 | 1011.0 |
| 20260502034503 | 51 | 101 | 6.0 | 9.0 | 0.00 | 0.00 | 0.00 | 52 | 1011.0 |
| 20260502034303 | 51 | 98 | 7.0 | 9.0 | 0.00 | 0.00 | 0.00 | 52 | 1011.0 |
| 20260502034203 | 51 | 96 | 8.0 | 9.0 | 0.00 | 0.00 | 0.00 | 52 | 1011.0 |
| 20260502033804 | 51 | 98 | 7.0 | 9.0 | 0.00 | 0.00 | 0.00 | 52 | 1011.0 |
| 20260502033703 | 51 | 99 | 7.0 | 9.0 | 0.00 | 0.00 | 0.00 | 52 | 1011.0 |
| 20260502033403 | 51 | 98 | 8.0 | 9.0 | 0.00 | 0.00 | 0.00 | 52 | 1011.0 |
| 20260502033303 | 51 | 99 | 8.0 | 9.0 | 0.00 | 0.00 | 0.00 | 52 | 1011.0 |
| 20260502033203 | 51 | 101 | 8.0 | 9.0 | 0.00 | 0.00 | 0.00 | 52 | 1011.0 |
| 20260502033103 | 51 | 99 | 8.0 | 9.0 | 0.00 | 0.00 | 0.00 | 52 | 1011.0 |
| 20260502032703 | 52 | 98 | 8.0 | 9.0 | 0.00 | 0.00 | 0.00 | 51 | 1011.0 |
| 20260502032403 | 52 | 101 | 8.0 | 9.0 | 0.00 | 0.00 | 0.00 | 51 | 1011.0 |
| 20260502032305 | 52 | 102 | 7.0 | 9.0 | 0.00 | 0.00 | 0.00 | 51 | 1011.0 |
| 20260502032203 | 52 | 99 | 7.0 | 9.0 | 0.00 | 0.00 | 0.00 | 51 | 1011.0 |
| 20260502032103 | 52 | 99 | 8.0 | 9.0 | 0.00 | 0.00 | 0.00 | 51 | 1011.0 |
| 20260502032004 | 52 | 101 | 8.0 | 9.0 | 0.00 | 0.00 | 0.00 | 51 | 1011.0 |
| 20260502031903 | 52 | 101 | 8.0 | 9.0 | 0.00 | 0.00 | 0.00 | 51 | 1011.0 |
| 20260502031803 | 52 | 100 | 8.0 | 8.0 | 0.00 | 0.00 | 0.00 | 51 | 1011.0 |
| 20260502031703 | 52 | 99 | 8.0 | 8.0 | 0.00 | 0.00 | 0.00 | 51 | 1011.0 |
| 20260502031603 | 52 | 97 | 8.0 | 8.0 | 0.00 | 0.00 | 0.00 | 49 | 1011.0 |
| 20260502031403 | 52 | 98 | 8.0 | 9.0 | 0.00 | 0.00 | 0.00 | 49 | 1011.0 |
| 20260502031303 | 53 | 99 | 7.0 | 9.0 | 0.00 | 0.00 | 0.00 | 49 | 1011.0 |
| 20260502031203 | 53 | 100 | 7.0 | 9.0 | 0.00 | 0.00 | 0.00 | 49 | 1011.0 |
| 20260502031003 | 53 | 100 | 8.0 | 9.0 | 0.00 | 0.00 | 0.00 | 48 | 1011.0 |
| 20260502030903 | 53 | 99 | 8.0 | 9.0 | 0.00 | 0.00 | 0.00 | 48 | 1011.0 |
| 20260502030803 | 53 | 98 | 7.0 | 9.0 | 0.00 | 0.00 | 0.00 | 48 | 1011.0 |
| 20260502030604 | 53 | 100 | 7.0 | 9.0 | 0.00 | 0.00 | 0.00 | 48 | 1011.0 |
| 20260502030404 | 53 | 99 | 7.0 | 9.0 | 0.00 | 0.00 | 0.00 | 48 | 1011.0 |
| 20260502030303 | 53 | 100 | 7.0 | 9.0 | 0.00 | 0.00 | 0.00 | 48 | 1011.0 |
| 20260502030203 | 54 | 98 | 7.0 | 9.0 | 0.00 | 0.00 | 0.00 | 47 | 1011.0 |
| 20260502030004 | 54 | 97 | 7.0 | 9.0 | 0.00 | 0.00 | 0.00 | 47 | 1011.0 |
| 20260502025903 | 54 | 97 | 7.0 | 9.0 | 0.00 | 0.00 | 0.00 | 47 | 1011.0 |
| 20260502025804 | 54 | 98 | 7.0 | 9.0 | 0.00 | 0.00 | 0.00 | 47 | 1011.0 |
| 20260502025704 | 54 | 98 | 8.0 | 9.0 | 0.00 | 0.00 | 0.00 | 46 | 1011.0 |
| 20260502025603 | 54 | 98 | 8.0 | 9.0 | 0.00 | 0.00 | 0.00 | 46 | 1011.0 |
| 20260502025504 | 54 | 99 | 6.0 | 8.0 | 0.00 | 0.00 | 0.00 | 46 | 1011.0 |
| 20260502025403 | 54 | 100 | 7.0 | 8.0 | 0.00 | 0.00 | 0.00 | 46 | 1011.0 |
| 20260502025306 | 54 | 98 | 8.0 | 8.0 | 0.00 | 0.00 | 0.00 | 45 | 1011.0 |
| 20260502025203 | 54 | 100 | 8.0 | 8.0 | 0.00 | 0.00 | 0.00 | 45 | 1011.0 |
| 20260502025103 | 55 | 103 | 8.0 | 8.0 | 0.00 | 0.00 | 0.00 | 45 | 1011.0 |
| 20260502025004 | 55 | 106 | 6.0 | 8.0 | 0.00 | 0.00 | 0.00 | 45 | 1011.0 |
| 20260502024903 | 55 | 108 | 6.0 | 8.0 | 0.00 | 0.00 | 0.00 | 45 | 1011.0 |
| 20260502024703 | 55 | 110 | 6.0 | 8.0 | 0.00 | 0.00 | 0.00 | 45 | 1011.0 |
| 20260502024504 | 55 | 113 | 6.0 | 8.0 | 0.00 | 0.00 | 0.00 | 45 | 1011.0 |
| 20260502024403 | 55 | 113 | 6.0 | 8.0 | 0.00 | 0.00 | 0.00 | 45 | 1011.0 |
| 20260502024203 | 55 | 115 | 6.0 | 8.0 | 0.00 | 0.00 | 0.00 | 45 | 1011.0 |
| 20260502024103 | 55 | 115 | 6.0 | 8.0 | 0.00 | 0.00 | 0.00 | 45 | 1011.0 |
| 20260502023903 | 56 | 115 | 7.0 | 8.0 | 0.00 | 0.00 | 0.00 | 45 | 1011.0 |
| 20260502023803 | 56 | 114 | 6.0 | 8.0 | 0.00 | 0.00 | 0.00 | 45 | 1011.0 |
| 20260502023703 | 56 | 112 | 6.0 | 7.0 | 0.00 | 0.00 | 0.00 | 45 | 1011.0 |
| 20260502023603 | 56 | 110 | 6.0 | 7.0 | 0.00 | 0.00 | 0.00 | 45 | 1011.0 |
| 20260502023503 | 56 | 110 | 6.0 | 7.0 | 0.00 | 0.00 | 0.00 | 44 | 1011.0 |
| 20260502023403 | 56 | 110 | 6.0 | 7.0 | 0.00 | 0.00 | 0.00 | 44 | 1011.0 |
| 20260502023304 | 56 | 110 | 6.0 | 7.0 | 0.00 | 0.00 | 0.00 | 44 | 1011.0 |
| 20260502023204 | 56 | 111 | 6.0 | 8.0 | 0.00 | 0.00 | 0.00 | 44 | 1011.0 |
| 20260502023103 | 56 | 111 | 6.0 | 8.0 | 0.00 | 0.00 | 0.00 | 44 | 1011.0 |
| 20260502023004 | 57 | 111 | 6.0 | 8.0 | 0.00 | 0.00 | 0.00 | 42 | 1011.0 |
| 20260502022904 | 57 | 111 | 6.0 | 8.0 | 0.00 | 0.00 | 0.00 | 42 | 1011.0 |
| 20260502022803 | 57 | 112 | 5.0 | 8.0 | 0.00 | 0.00 | 0.00 | 42 | 1011.0 |
| 20260502022703 | 57 | 114 | 5.0 | 8.0 | 0.00 | 0.00 | 0.00 | 42 | 1011.0 |
| 20260502022604 | 57 | 114 | 5.0 | 8.0 | 0.00 | 0.00 | 0.00 | 42 | 1011.0 |
| 20260502022504 | 57 | 114 | 5.0 | 8.0 | 0.00 | 0.00 | 0.00 | 42 | 1011.0 |
| 20260502022306 | 57 | 113 | 6.0 | 8.0 | 0.00 | 0.00 | 0.00 | 41 | 1011.0 |
| 20260502022203 | 57 | 112 | 6.0 | 8.0 | 0.00 | 0.00 | 0.00 | 41 | 1011.0 |
| 20260502022004 | 58 | 113 | 5.0 | 8.0 | 0.00 | 0.00 | 0.00 | 41 | 1011.0 |
| 20260502021903 | 58 | 113 | 6.0 | 8.0 | 0.00 | 0.00 | 0.00 | 41 | 1011.0 |
| 20260502021803 | 58 | 113 | 6.0 | 8.0 | 0.00 | 0.00 | 0.00 | 41 | 1011.0 |
| 20260502021703 | 58 | 113 | 6.0 | 8.0 | 0.00 | 0.00 | 0.00 | 41 | 1011.0 |
| 20260502021603 | 58 | 114 | 6.0 | 8.0 | 0.00 | 0.00 | 0.00 | 41 | 1011.0 |
| 20260502021504 | 58 | 114 | 6.0 | 8.0 | 0.00 | 0.00 | 0.00 | 41 | 1011.0 |
| 20260502021303 | 59 | 114 | 6.0 | 7.0 | 0.00 | 0.00 | 0.00 | 41 | 1011.0 |
| 20260502021203 | 59 | 114 | 6.0 | 7.0 | 0.00 | 0.00 | 0.00 | 41 | 1011.0 |
| 20260502021103 | 59 | 113 | 6.0 | 7.0 | 0.00 | 0.00 | 0.00 | 41 | 1011.0 |
| 20260502021004 | 59 | 113 | 6.0 | 7.0 | 0.00 | 0.00 | 0.00 | 40 | 1011.0 |
| 20260502020903 | 59 | 112 | 6.0 | 7.0 | 0.00 | 0.00 | 0.00 | 39 | 1011.0 |
| 20260502020803 | 59 | 112 | 6.0 | 7.0 | 0.00 | 0.00 | 0.00 | 39 | 1011.0 |
| 20260502020703 | 60 | 112 | 5.0 | 7.0 | 0.00 | 0.00 | 0.00 | 40 | 1011.0 |
| 20260502020604 | 60 | 111 | 6.0 | 7.0 | 0.00 | 0.00 | 0.00 | 40 | 1011.0 |
| 20260502020504 | 60 | 111 | 6.0 | 7.0 | 0.00 | 0.00 | 0.00 | 40 | 1011.0 |
| 20260502020303 | 60 | 110 | 6.0 | 8.0 | 0.00 | 0.00 | 0.00 | 39 | 1011.0 |
| 20260502020203 | 60 | 110 | 6.0 | 8.0 | 0.00 | 0.00 | 0.00 | 39 | 1011.0 |
| 20260502020103 | 61 | 110 | 6.0 | 8.0 | 0.00 | 0.00 | 0.00 | 39 | 1011.0 |
| 20260502020004 | 61 | 111 | 6.0 | 8.0 | 0.00 | 0.00 | 0.00 | 39 | 1011.0 |
| 20260502015903 | 61 | 110 | 6.0 | 8.0 | 0.00 | 0.00 | 0.00 | 39 | 1011.0 |
| 20260502015803 | 61 | 110 | 6.0 | 8.0 | 0.00 | 0.00 | 0.00 | 39 | 1011.0 |
| 20260502015703 | 61 | 110 | 7.0 | 8.0 | 0.00 | 0.00 | 0.00 | 39 | 1011.0 |
| 20260502015603 | 61 | 110 | 6.0 | 8.0 | 0.00 | 0.00 | 0.00 | 39 | 1011.0 |
| 20260502015503 | 61 | 111 | 6.0 | 8.0 | 0.00 | 0.00 | 0.00 | 39 | 1011.0 |
| 20260502015403 | 62 | 113 | 6.0 | 7.0 | 0.00 | 0.00 | 0.00 | 39 | 1011.0 |
| 20260502015305 | 62 | 113 | 6.0 | 7.0 | 0.00 | 0.00 | 0.00 | 39 | 1011.0 |
| 20260502015204 | 62 | 113 | 5.0 | 7.0 | 0.00 | 0.00 | 0.00 | 39 | 1011.0 |
| 20260502015103 | 62 | 113 | 5.0 | 7.0 | 0.00 | 0.00 | 0.00 | 39 | 1011.0 |
| 20260502015004 | 62 | 113 | 6.0 | 7.0 | 0.00 | 0.00 | 0.00 | 38 | 1011.0 |
| 20260502014803 | 63 | 113 | 6.0 | 7.0 | 0.00 | 0.00 | 0.00 | 38 | 1011.0 |
| 20260502014704 | 63 | 113 | 6.0 | 7.0 | 0.00 | 0.00 | 0.00 | 38 | 1011.0 |
| 20260502014604 | 63 | 114 | 6.0 | 7.0 | 0.00 | 0.00 | 0.00 | 38 | 1011.0 |
| 20260502014503 | 63 | 115 | 5.0 | 7.0 | 0.00 | 0.00 | 0.00 | 38 | 1011.0 |
| 20260502014404 | 63 | 115 | 5.0 | 8.0 | 0.00 | 0.00 | 0.00 | 38 | 1011.0 |
| 20260502014304 | 64 | 115 | 6.0 | 8.0 | 0.00 | 0.00 | 0.00 | 38 | 1011.0 |
| 20260502014203 | 64 | 117 | 6.0 | 8.0 | 0.00 | 0.00 | 0.00 | 38 | 1011.0 |
| 20260502014103 | 64 | 115 | 6.0 | 8.0 | 0.00 | 0.00 | 0.00 | 38 | 1011.0 |
| 20260502013803 | 64 | 114 | 6.0 | 8.0 | 0.00 | 0.00 | 0.00 | 37 | 1011.0 |
| 20260502013703 | 64 | 114 | 6.0 | 8.0 | 0.00 | 0.00 | 0.00 | 37 | 1011.0 |
| 20260502013604 | 65 | 114 | 6.0 | 8.0 | 0.00 | 0.00 | 0.00 | 37 | 1011.0 |
| 20260502013504 | 65 | 113 | 7.0 | 8.0 | 0.00 | 0.00 | 0.00 | 37 | 1011.0 |
| 20260502013404 | 65 | 113 | 6.0 | 8.0 | 0.00 | 0.00 | 0.00 | 37 | 1011.0 |
| 20260502013304 | 65 | 113 | 6.0 | 8.0 | 0.00 | 0.00 | 0.00 | 37 | 1011.0 |
| 20260502013103 | 65 | 110 | 5.0 | 6.0 | 0.00 | 0.00 | 0.00 | 37 | 1011.0 |
| 20260502013004 | 66 | 111 | 5.0 | 5.0 | 0.00 | 0.00 | 0.00 | 36 | 1011.0 |
| 20260502012803 | 66 | 114 | 4.0 | 5.0 | 0.00 | 0.00 | 0.00 | 36 | 1011.0 |
| 20260502012504 | 67 | 0 | 0.0 | 0.0 | 0.00 | 0.00 | 0.00 | 36 | 1011.0 |
| 20260502012403 | 67 | 0 | 0.0 | 0.0 | 0.00 | 0.00 | 0.00 | 36 | 1011.0 |
| 20260502012306 | 67 | 0 | 0.0 | 0.0 | 0.00 | 0.00 | 0.00 | 36 | 1011.0 |
| 20260502011803 | 68 | 0 | 0.0 | 0.0 | 0.00 | 0.00 | 0.00 | 34 | 1011.0 |
| 20260502011703 | 68 | 0 | 0.0 | 0.0 | 0.00 | 0.00 | 0.00 | 33 | 1011.0 |
| 20260502011603 | 68 | 0 | 0.0 | 0.0 | 0.00 | 0.00 | 0.00 | 33 | 1011.0 |
| 20260502011203 | 69 | 118 | 0.0 | 6.0 | 0.00 | 0.00 | 0.00 | 34 | 1011.0 |
| 20260502011103 | 69 | 119 | 0.0 | 6.0 | 0.00 | 0.00 | 0.00 | 34 | 1011.0 |
| 20260502011004 | 69 | 121 | 0.0 | 6.0 | 0.00 | 0.00 | 0.00 | 34 | 1012.1 |
| 20260502010903 | 69 | 123 | 0.0 | 6.0 | 0.00 | 0.00 | 0.00 | 34 | 1012.1 |
| 20260502010803 | 69 | 123 | 0.0 | 6.0 | 0.00 | 0.00 | 0.00 | 34 | 1012.1 |
| 20260502010703 | 70 | 124 | 0.0 | 6.0 | 0.00 | 0.00 | 0.00 | 33 | 1012.1 |
| 20260502010603 | 70 | 128 | 0.0 | 6.0 | 0.00 | 0.00 | 0.00 | 34 | 1012.1 |
| 20260502010503 | 70 | 128 | 3.0 | 6.0 | 0.00 | 0.00 | 0.00 | 33 | 1012.1 |
| 20260502010403 | 70 | 125 | 4.0 | 6.0 | 0.00 | 0.00 | 0.00 | 33 | 1012.1 |
| 20260502010304 | 70 | 125 | 5.0 | 6.0 | 0.00 | 0.00 | 0.00 | 33 | 1012.1 |
| 20260502010204 | 70 | 129 | 2.0 | 5.0 | 0.00 | 0.00 | 0.00 | 33 | 1012.1 |
| 20260502010004 | 71 | 127 | 3.0 | 5.0 | 0.00 | 0.00 | 0.00 | 33 | 1012.1 |
| 20260502005803 | 71 | 119 | 1.0 | 5.0 | 0.00 | 0.00 | 0.00 | 33 | 1012.1 |
| 20260502005703 | 71 | 114 | 4.0 | 5.0 | 0.00 | 0.00 | 0.00 | 33 | 1012.1 |
| 20260502005603 | 71 | 107 | 4.0 | 5.0 | 0.00 | 0.00 | 0.00 | 33 | 1012.1 |
| 20260502005503 | 71 | 104 | 4.0 | 5.0 | 0.00 | 0.00 | 0.00 | 33 | 1011.0 |
| 20260502005403 | 72 | 100 | 0.0 | 4.0 | 0.00 | 0.00 | 0.00 | 33 | 1011.0 |
| 20260502005306 | 72 | 100 | 0.0 | 4.0 | 0.00 | 0.00 | 0.00 | 33 | 1011.0 |
| 20260502005003 | 72 | 100 | 0.0 | 4.0 | 0.00 | 0.00 | 0.00 | 33 | 1011.0 |
| 20260502004903 | 72 | 101 | 3.0 | 4.0 | 0.00 | 0.00 | 0.00 | 33 | 1011.0 |
| 20260502004803 | 72 | 103 | 4.0 | 4.0 | 0.00 | 0.00 | 0.00 | 33 | 1011.0 |
| 20260502004504 | 73 | 96 | 1.0 | 4.0 | 0.00 | 0.00 | 0.00 | 33 | 1011.0 |
| 20260502004403 | 73 | 0 | 0.0 | 0.0 | 0.00 | 0.00 | 0.00 | 33 | 1011.0 |
| 20260502004303 | 73 | 0 | 0.0 | 0.0 | 0.00 | 0.00 | 0.00 | 32 | 1011.0 |
| 20260502004104 | 73 | 135 | 0.0 | 5.0 | 0.00 | 0.00 | 0.00 | 32 | 1011.0 |
| 20260502004004 | 73 | 127 | 0.0 | 6.0 | 0.00 | 0.00 | 0.00 | 32 | 1012.1 |
| 20260502003803 | 73 | 127 | 0.0 | 6.0 | 0.00 | 0.00 | 0.00 | 31 | 1012.1 |
| 20260502003703 | 73 | 127 | 0.0 | 6.0 | 0.00 | 0.00 | 0.00 | 32 | 1012.1 |
| 20260502003603 | 73 | 127 | 0.0 | 6.0 | 0.00 | 0.00 | 0.00 | 32 | 1012.1 |
| 20260502003503 | 73 | 127 | 0.0 | 6.0 | 0.00 | 0.00 | 0.00 | 32 | 1012.1 |
| 20260502003404 | 74 | 127 | 0.0 | 6.0 | 0.00 | 0.00 | 0.00 | 32 | 1012.1 |
| 20260502003303 | 74 | 127 | 0.0 | 6.0 | 0.00 | 0.00 | 0.00 | 32 | 1012.1 |
| 20260502003203 | 74 | 127 | 3.0 | 6.0 | 0.00 | 0.00 | 0.00 | 32 | 1012.1 |
| 20260502003103 | 74 | 121 | 4.0 | 6.0 | 0.00 | 0.00 | 0.00 | 32 | 1012.1 |
| 20260502002803 | 74 | 0 | 0.0 | 0.0 | 0.00 | 0.00 | 0.00 | 31 | 1012.1 |
| 20260502002703 | 74 | 0 | 0.0 | 0.0 | 0.00 | 0.00 | 0.00 | 31 | 1012.1 |
| 20260502002503 | 74 | 0 | 0.0 | 0.0 | 0.00 | 0.00 | 0.00 | 32 | 1012.1 |
| 20260502002403 | 74 | 0 | 0.0 | 0.0 | 0.00 | 0.00 | 0.00 | 32 | 1012.1 |
| 20260502002305 | 74 | 0 | 0.0 | 0.0 | 0.00 | 0.00 | 0.00 | 32 | 1012.1 |
| 20260502002203 | 74 | 0 | 0.0 | 0.0 | 0.00 | 0.00 | 0.00 | 31 | 1012.1 |
| 20260502002103 | 74 | 0 | 0.0 | 0.0 | 0.00 | 0.00 | 0.00 | 31 | 1012.1 |
| 20260502002004 | 74 | 139 | 0.0 | 3.0 | 0.00 | 0.00 | 0.00 | 31 | 1012.1 |
| 20260502001903 | 74 | 307 | 0.0 | 5.0 | 0.00 | 0.00 | 0.00 | 31 | 1012.1 |
| 20260502001703 | 74 | 307 | 0.0 | 5.0 | 0.00 | 0.00 | 0.00 | 31 | 1012.1 |
| 20260502001603 | 74 | 307 | 0.0 | 5.0 | 0.00 | 0.00 | 0.00 | 31 | 1012.1 |
| 20260502001503 | 74 | 307 | 0.0 | 5.0 | 0.00 | 0.00 | 0.00 | 31 | 1012.1 |
| 20260502001403 | 74 | 307 | 0.0 | 5.0 | 0.00 | 0.00 | 0.00 | 30 | 1012.1 |
| 20260502001303 | 74 | 4 | 0.0 | 5.0 | 0.00 | 0.00 | 0.00 | 31 | 1012.1 |
| 20260502001204 | 74 | 8 | 0.0 | 5.0 | 0.00 | 0.00 | 0.00 | 31 | 1012.1 |
| 20260502001004 | 74 | 3 | 2.0 | 5.0 | 0.00 | 0.00 | 0.00 | 30 | 1012.1 |
| 20260502000904 | 74 | 24 | 0.0 | 4.0 | 0.00 | 0.00 | 0.00 | 31 | 1012.1 |
| 20260502000803 | 74 | 24 | 0.0 | 4.0 | 0.00 | 0.00 | 0.00 | 31 | 1012.1 |
| 20260502000703 | 74 | 21 | 0.0 | 4.0 | 0.00 | 0.00 | 0.00 | 31 | 1012.1 |
| 20260502000603 | 74 | 5 | 0.0 | 5.0 | 0.00 | 0.00 | 0.00 | 30 | 1012.1 |
| 20260502000504 | 73 | 8 | 0.0 | 5.0 | 0.00 | 0.00 | 0.00 | 30 | 1012.1 |
| 20260502000403 | 73 | 8 | 2.0 | 5.0 | 0.00 | 0.00 | 0.00 | 30 | 1012.1 |
| 20260502000303 | 73 | 355 | 1.0 | 5.0 | 0.00 | 0.00 | 0.00 | 31 | 1012.1 |
| 20260502000204 | 73 | 347 | 1.0 | 5.0 | 0.00 | 0.00 | 0.00 | 30 | 1012.1 |
| 20260502000004 | 73 | 346 | 0.0 | 5.0 | 0.00 | 0.00 | 0.00 | 31 | 1012.1 |
| 20260501235903 | 73 | 346 | 0.0 | 5.0 | 0.00 | 0.00 | 0.00 | 32 | 1012.1 |
| 20260501235803 | 73 | 323 | 2.0 | 5.0 | 0.00 | 0.00 | 0.00 | 31 | 1012.1 |
| 20260501235703 | 73 | 282 | 2.0 | 5.0 | 0.00 | 0.00 | 0.00 | 30 | 1012.1 |
| 20260501235604 | 73 | 225 | 0.0 | 4.0 | 0.00 | 0.00 | 0.00 | 31 | 1012.1 |
| 20260501235503 | 73 | 225 | 0.0 | 4.0 | 0.00 | 0.00 | 0.00 | 31 | 1012.1 |
| 20260501235403 | 73 | 225 | 0.0 | 4.0 | 0.00 | 0.00 | 0.00 | 31 | 1012.1 |
| 20260501235103 | 74 | 226 | 0.0 | 7.0 | 0.00 | 0.00 | 0.00 | 31 | 1012.1 |
| 20260501235004 | 73 | 227 | 0.0 | 7.0 | 0.00 | 0.00 | 0.00 | 32 | 1012.1 |
| 20260501234903 | 73 | 235 | 1.0 | 7.0 | 0.00 | 0.00 | 0.00 | 32 | 1012.1 |
| 20260501234803 | 73 | 244 | 1.0 | 7.0 | 0.00 | 0.00 | 0.00 | 32 | 1012.1 |
| 20260501234603 | 73 | 245 | 0.0 | 7.0 | 0.00 | 0.00 | 0.00 | 32 | 1012.1 |
| 20260501234403 | 73 | 246 | 3.0 | 8.0 | 0.00 | 0.00 | 0.00 | 31 | 1012.1 |
| 20260501234303 | 74 | 253 | 6.0 | 8.0 | 0.00 | 0.00 | 0.00 | 31 | 1012.1 |
| 20260501234203 | 73 | 262 | 0.0 | 8.0 | 0.00 | 0.00 | 0.00 | 31 | 1012.1 |
| 20260501234103 | 73 | 269 | 2.0 | 8.0 | 0.00 | 0.00 | 0.00 | 32 | 1012.1 |
| 20260501234004 | 73 | 272 | 4.0 | 8.0 | 0.00 | 0.00 | 0.00 | 32 | 1012.1 |
| 20260501233903 | 73 | 277 | 4.0 | 8.0 | 0.00 | 0.00 | 0.00 | 30 | 1012.1 |
| 20260501233804 | 73 | 278 | 5.0 | 8.0 | 0.00 | 0.00 | 0.00 | 30 | 1012.1 |
| 20260501233503 | 73 | 296 | 4.0 | 8.0 | 0.00 | 0.00 | 0.00 | 30 | 1012.1 |
| 20260501233403 | 73 | 298 | 2.0 | 7.0 | 0.00 | 0.00 | 0.00 | 31 | 1012.1 |
| 20260501233303 | 73 | 297 | 4.0 | 7.0 | 0.00 | 0.00 | 0.00 | 31 | 1012.1 |
| 20260501233203 | 74 | 289 | 2.0 | 7.0 | 0.00 | 0.00 | 0.00 | 30 | 1012.1 |
| 20260501233104 | 74 | 286 | 3.0 | 7.0 | 0.00 | 0.00 | 0.00 | 31 | 1012.1 |
| 20260501233004 | 74 | 282 | 4.0 | 7.0 | 0.00 | 0.00 | 0.00 | 31 | 1012.1 |
| 20260501232703 | 74 | 271 | 4.0 | 5.0 | 0.00 | 0.00 | 0.00 | 32 | 1012.1 |
| 20260501232603 | 74 | 272 | 4.0 | 5.0 | 0.00 | 0.00 | 0.00 | 32 | 1012.1 |
| 20260501232503 | 74 | 272 | 1.0 | 5.0 | 0.00 | 0.00 | 0.00 | 32 | 1012.1 |
| 20260501232403 | 74 | 276 | 3.0 | 5.0 | 0.00 | 0.00 | 0.00 | 32 | 1012.1 |
| 20260501232306 | 74 | 278 | 3.0 | 5.0 | 0.00 | 0.00 | 0.00 | 32 | 1012.1 |
| 20260501232004 | 74 | 272 | 0.0 | 6.0 | 0.00 | 0.00 | 0.00 | 32 | 1012.1 |
| 20260501231904 | 74 | 268 | 2.0 | 6.0 | 0.00 | 0.00 | 0.00 | 32 | 1012.1 |
| 20260501231803 | 74 | 264 | 3.0 | 6.0 | 0.00 | 0.00 | 0.00 | 32 | 1012.1 |
| 20260501231703 | 74 | 265 | 3.0 | 6.0 | 0.00 | 0.00 | 0.00 | 32 | 1012.1 |
| 20260501231504 | 74 | 263 | 2.0 | 6.0 | 0.00 | 0.00 | 0.00 | 32 | 1012.1 |
| 20260501231403 | 74 | 259 | 1.0 | 6.0 | 0.00 | 0.00 | 0.00 | 32 | 1012.1 |
| 20260501231303 | 74 | 257 | 0.0 | 6.0 | 0.00 | 0.00 | 0.00 | 32 | 1012.1 |
| 20260501231203 | 74 | 257 | 3.0 | 6.0 | 0.00 | 0.00 | 0.00 | 32 | 1012.1 |
| 20260501231103 | 74 | 272 | 2.0 | 6.0 | 0.00 | 0.00 | 0.00 | 32 | 1012.1 |
| 20260501231003 | 74 | 287 | 3.0 | 4.0 | 0.00 | 0.00 | 0.00 | 32 | 1012.1 |
| 20260501230903 | 74 | 310 | 0.0 | 4.0 | 0.00 | 0.00 | 0.00 | 32 | 1012.1 |
| 20260501230803 | 74 | 313 | 0.0 | 4.0 | 0.00 | 0.00 | 0.00 | 31 | 1012.1 |
| 20260501230704 | 74 | 316 | 3.0 | 4.0 | 0.00 | 0.00 | 0.00 | 31 | 1012.1 |
| 20260501230604 | 74 | 319 | 2.0 | 4.0 | 0.00 | 0.00 | 0.00 | 32 | 1012.1 |
| 20260501230503 | 74 | 313 | 0.0 | 4.0 | 0.00 | 0.00 | 0.00 | 32 | 1012.1 |
| 20260501230403 | 74 | 321 | 0.0 | 4.0 | 0.00 | 0.00 | 0.00 | 32 | 1012.1 |
| 20260501230303 | 74 | 316 | 0.0 | 4.0 | 0.00 | 0.00 | 0.00 | 32 | 1012.1 |
| 20260501230204 | 74 | 316 | 2.0 | 4.0 | 0.00 | 0.00 | 0.00 | 32 | 1012.1 |
| 20260501230004 | 73 | 93 | 2.0 | 4.0 | 0.00 | 0.00 | 0.00 | 32 | 1012.1 |
| 20260501225704 | 74 | 103 | 1.0 | 9.0 | 0.00 | 0.00 | 0.00 | 33 | 1012.1 |
| 20260501225604 | 74 | 106 | 3.0 | 9.0 | 0.00 | 0.00 | 0.00 | 33 | 1012.1 |
| 20260501225306 | 74 | 96 | 0.0 | 9.0 | 0.00 | 0.00 | 0.00 | 33 | 1012.1 |
| 20260501225204 | 74 | 93 | 0.0 | 9.0 | 0.00 | 0.00 | 0.00 | 33 | 1012.1 |
| 20260501225103 | 74 | 93 | 3.0 | 9.0 | 0.00 | 0.00 | 0.00 | 33 | 1012.1 |
| 20260501225004 | 74 | 90 | 4.0 | 9.0 | 0.00 | 0.00 | 0.00 | 33 | 1012.1 |
| 20260501224703 | 74 | 96 | 3.0 | 8.0 | 0.00 | 0.00 | 0.00 | 33 | 1012.1 |
| 20260501224603 | 74 | 95 | 0.0 | 8.0 | 0.00 | 0.00 | 0.00 | 33 | 1012.1 |
| 20260501224503 | 74 | 98 | 4.0 | 8.0 | 0.00 | 0.00 | 0.00 | 34 | 1012.1 |
| 20260501224404 | 74 | 95 | 3.0 | 8.0 | 0.00 | 0.00 | 0.00 | 33 | 1012.1 |
| 20260501224203 | 74 | 92 | 0.0 | 8.0 | 0.00 | 0.00 | 0.00 | 33 | 1012.1 |
| 20260501224104 | 74 | 102 | 0.0 | 8.0 | 0.00 | 0.00 | 0.00 | 34 | 1012.1 |
| 20260501224004 | 74 | 104 | 0.0 | 8.0 | 0.00 | 0.00 | 0.00 | 33 | 1012.1 |
| 20260501223904 | 74 | 100 | 0.0 | 8.0 | 0.00 | 0.00 | 0.00 | 33 | 1012.1 |
| 20260501223703 | 74 | 95 | 3.0 | 7.0 | 0.00 | 0.00 | 0.00 | 33 | 1012.1 |
| 20260501223603 | 74 | 94 | 0.0 | 8.0 | 0.00 | 0.00 | 0.00 | 33 | 1012.1 |
| 20260501223503 | 74 | 95 | 1.0 | 8.0 | 0.00 | 0.00 | 0.00 | 33 | 1012.1 |
| 20260501223404 | 74 | 102 | 2.0 | 11.0 | 0.00 | 0.00 | 0.00 | 33 | 1012.1 |
| 20260501223303 | 74 | 104 | 3.0 | 11.0 | 0.00 | 0.00 | 0.00 | 33 | 1012.1 |
| 20260501223203 | 74 | 107 | 3.0 | 11.0 | 0.00 | 0.00 | 0.00 | 34 | 1012.1 |
| 20260501223103 | 74 | 105 | 4.0 | 11.0 | 0.00 | 0.00 | 0.00 | 34 | 1012.1 |
| 20260501223004 | 74 | 103 | 4.0 | 11.0 | 0.00 | 0.00 | 0.00 | 34 | 1012.1 |
| 20260501222903 | 74 | 106 | 3.0 | 11.0 | 0.00 | 0.00 | 0.00 | 34 | 1012.1 |
| 20260501222803 | 74 | 109 | 4.0 | 11.0 | 0.00 | 0.00 | 0.00 | 34 | 1012.1 |
| 20260501222703 | 74 | 115 | 6.0 | 11.0 | 0.00 | 0.00 | 0.00 | 34 | 1012.1 |
| 20260501222603 | 74 | 119 | 4.0 | 11.0 | 0.00 | 0.00 | 0.00 | 34 | 1012.1 |
| 20260501222503 | 74 | 122 | 8.0 | 11.0 | 0.00 | 0.00 | 0.00 | 34 | 1012.1 |
| 20260501222203 | 73 | 229 | 0.0 | 5.0 | 0.00 | 0.00 | 0.00 | 34 | 1012.1 |
| 20260501222103 | 73 | 253 | 0.0 | 6.0 | 0.00 | 0.00 | 0.00 | 36 | 1012.1 |
| 20260501222004 | 73 | 274 | 1.0 | 6.0 | 0.00 | 0.00 | 0.00 | 36 | 1012.1 |
| 20260501221803 | 72 | 281 | 1.0 | 6.0 | 0.00 | 0.00 | 0.00 | 34 | 1012.1 |
| 20260501221703 | 72 | 294 | 0.0 | 6.0 | 0.00 | 0.00 | 0.00 | 34 | 1012.1 |
| 20260501221603 | 72 | 307 | 0.0 | 6.0 | 0.00 | 0.00 | 0.00 | 34 | 1012.1 |
| 20260501221503 | 72 | 302 | 0.0 | 6.0 | 0.00 | 0.00 | 0.00 | 33 | 1012.1 |
| 20260501221403 | 72 | 306 | 3.0 | 6.0 | 0.00 | 0.00 | 0.00 | 34 | 1012.1 |
| 20260501221303 | 72 | 330 | 4.0 | 6.0 | 0.00 | 0.00 | 0.00 | 34 | 1012.1 |
| 20260501221203 | 72 | 15 | 4.0 | 6.0 | 0.00 | 0.00 | 0.00 | 34 | 1012.1 |
| 20260501221103 | 72 | 44 | 4.0 | 6.0 | 0.00 | 0.00 | 0.00 | 34 | 1012.1 |
| 20260501221003 | 72 | 57 | 5.0 | 6.0 | 0.00 | 0.00 | 0.00 | 34 | 1012.1 |
| 20260501220903 | 72 | 53 | 1.0 | 6.0 | 0.00 | 0.00 | 0.00 | 36 | 1012.1 |
| 20260501220803 | 72 | 42 | 0.0 | 5.0 | 0.00 | 0.00 | 0.00 | 34 | 1012.1 |
| 20260501220604 | 72 | 72 | 4.0 | 5.0 | 0.00 | 0.00 | 0.00 | 33 | 1012.1 |
| 20260501220403 | 72 | 86 | 3.0 | 6.0 | 0.00 | 0.00 | 0.00 | 36 | 1012.1 |
| 20260501220303 | 72 | 70 | 4.0 | 7.0 | 0.00 | 0.00 | 0.00 | 36 | 1012.1 |
| 20260501215903 | 72 | 63 | 0.0 | 8.0 | 0.00 | 0.00 | 0.00 | 36 | 1012.1 |
| 20260501215803 | 72 | 65 | 3.0 | 8.0 | 0.00 | 0.00 | 0.00 | 36 | 1012.1 |
| 20260501215703 | 72 | 64 | 4.0 | 8.0 | 0.00 | 0.00 | 0.00 | 36 | 1012.1 |
| 20260501215604 | 72 | 47 | 3.0 | 8.0 | 0.00 | 0.00 | 0.00 | 36 | 1012.1 |
| 20260501215503 | 72 | 47 | 4.0 | 8.0 | 0.00 | 0.00 | 0.00 | 36 | 1012.1 |
| 20260501215104 | 72 | 189 | 0.0 | 4.0 | 0.00 | 0.00 | 0.00 | 37 | 1012.1 |
| 20260501215004 | 72 | 189 | 1.0 | 4.0 | 0.00 | 0.00 | 0.00 | 37 | 1012.1 |
| 20260501214903 | 72 | 171 | 1.0 | 6.0 | 0.00 | 0.00 | 0.00 | 37 | 1012.1 |
| 20260501214703 | 72 | 145 | 0.0 | 9.0 | 0.00 | 0.00 | 0.00 | 38 | 1012.1 |
| 20260501214603 | 72 | 142 | 1.0 | 9.0 | 0.00 | 0.00 | 0.00 | 38 | 1012.1 |
| 20260501214404 | 72 | 125 | 3.0 | 9.0 | 0.00 | 0.00 | 0.00 | 37 | 1012.1 |
| 20260501214304 | 72 | 121 | 3.0 | 9.0 | 0.00 | 0.00 | 0.00 | 37 | 1012.1 |
| 20260501214204 | 72 | 112 | 3.0 | 11.0 | 0.00 | 0.00 | 0.00 | 38 | 1012.1 |
| 20260501214104 | 72 | 108 | 1.0 | 11.0 | 0.00 | 0.00 | 0.00 | 38 | 1012.1 |
| 20260501214004 | 72 | 105 | 4.0 | 11.0 | 0.00 | 0.00 | 0.00 | 38 | 1011.0 |
| 20260501213903 | 72 | 100 | 5.0 | 11.0 | 0.00 | 0.00 | 0.00 | 37 | 1011.0 |
| 20260501213803 | 72 | 97 | 6.0 | 11.0 | 0.00 | 0.00 | 0.00 | 38 | 1011.0 |
| 20260501213704 | 72 | 97 | 6.0 | 11.0 | 0.00 | 0.00 | 0.00 | 37 | 1011.0 |
| 20260501213604 | 72 | 95 | 3.0 | 11.0 | 0.00 | 0.00 | 0.00 | 37 | 1011.0 |
| 20260501213504 | 72 | 94 | 4.0 | 11.0 | 0.00 | 0.00 | 0.00 | 38 | 1011.0 |
| 20260501213403 | 72 | 93 | 6.0 | 11.0 | 0.00 | 0.00 | 0.00 | 38 | 1011.0 |
| 20260501213303 | 72 | 93 | 9.0 | 11.0 | 0.00 | 0.00 | 0.00 | 38 | 1011.0 |
| 20260501213203 | 72 | 92 | 7.0 | 10.0 | 0.00 | 0.00 | 0.00 | 37 | 1011.0 |
| 20260501213103 | 72 | 90 | 5.0 | 8.0 | 0.00 | 0.00 | 0.00 | 37 | 1011.0 |
| 20260501213003 | 71 | 90 | 4.0 | 8.0 | 0.00 | 0.00 | 0.00 | 38 | 1011.0 |
| 20260501212903 | 71 | 90 | 6.0 | 8.0 | 0.00 | 0.00 | 0.00 | 38 | 1011.0 |
| 20260501212804 | 71 | 91 | 5.0 | 8.0 | 0.00 | 0.00 | 0.00 | 37 | 1011.0 |
| 20260501212603 | 71 | 81 | 4.0 | 8.0 | 0.00 | 0.00 | 0.00 | 37 | 1011.0 |
| 20260501212503 | 71 | 78 | 5.0 | 8.0 | 0.00 | 0.00 | 0.00 | 37 | 1011.0 |
| 20260501212403 | 71 | 75 | 3.0 | 8.0 | 0.00 | 0.00 | 0.00 | 37 | 1011.0 |
| 20260501212306 | 70 | 76 | 4.0 | 8.0 | 0.00 | 0.00 | 0.00 | 37 | 1011.0 |
| 20260501212203 | 70 | 71 | 6.0 | 8.0 | 0.00 | 0.00 | 0.00 | 37 | 1011.0 |
| 20260501212104 | 70 | 64 | 6.0 | 8.0 | 0.00 | 0.00 | 0.00 | 36 | 1011.0 |
| 20260501212004 | 70 | 54 | 5.0 | 6.0 | 0.00 | 0.00 | 0.00 | 36 | 1011.0 |
| 20260501211604 | 70 | 63 | 1.0 | 13.0 | 0.00 | 0.00 | 0.00 | 37 | 1011.0 |
| 20260501211504 | 70 | 63 | 4.0 | 13.0 | 0.00 | 0.00 | 0.00 | 37 | 1011.0 |
| 20260501211404 | 70 | 68 | 3.0 | 13.0 | 0.00 | 0.00 | 0.00 | 37 | 1011.0 |
| 20260501211303 | 69 | 70 | 4.0 | 13.0 | 0.00 | 0.00 | 0.00 | 37 | 1011.0 |
| 20260501211203 | 70 | 74 | 5.0 | 13.0 | 0.00 | 0.00 | 0.00 | 36 | 1011.0 |
| 20260501211103 | 70 | 79 | 4.0 | 13.0 | 0.00 | 0.00 | 0.00 | 37 | 1011.0 |
| 20260501211005 | 70 | 90 | 6.0 | 13.0 | 0.00 | 0.00 | 0.00 | 38 | 1012.1 |
| 20260501210903 | 70 | 93 | 7.0 | 13.0 | 0.00 | 0.00 | 0.00 | 38 | 1012.1 |
| 20260501210803 | 70 | 94 | 6.0 | 11.0 | 0.00 | 0.00 | 0.00 | 38 | 1012.1 |
| 20260501210703 | 70 | 99 | 2.0 | 10.0 | 0.00 | 0.00 | 0.00 | 37 | 1012.1 |
| 20260501210404 | 70 | 100 | 7.0 | 8.0 | 0.00 | 0.00 | 0.00 | 39 | 1012.1 |
| 20260501210304 | 70 | 105 | 5.0 | 8.0 | 0.00 | 0.00 | 0.00 | 39 | 1012.1 |
| 20260501210204 | 70 | 118 | 4.0 | 8.0 | 0.00 | 0.00 | 0.00 | 40 | 1012.1 |
| 20260501210104 | 69 | 144 | 5.0 | 8.0 | 0.00 | 0.00 | 0.00 | 39 | 1012.1 |
| 20260501210004 | 69 | 197 | 6.0 | 8.0 | 0.00 | 0.00 | 0.00 | 38 | 1012.1 |
| 20260501205903 | 69 | 268 | 2.0 | 8.0 | 0.00 | 0.00 | 0.00 | 38 | 1012.1 |
| 20260501205803 | 69 | 265 | 0.0 | 8.0 | 0.00 | 0.00 | 0.00 | 37 | 1012.1 |
| 20260501205603 | 69 | 278 | 2.0 | 9.0 | 0.00 | 0.00 | 0.00 | 37 | 1012.1 |
| 20260501205504 | 69 | 282 | 0.0 | 9.0 | 0.00 | 0.00 | 0.00 | 37 | 1012.1 |
| 20260501205404 | 69 | 285 | 3.0 | 9.0 | 0.00 | 0.00 | 0.00 | 37 | 1012.1 |
| 20260501205305 | 68 | 292 | 4.0 | 9.0 | 0.00 | 0.00 | 0.00 | 37 | 1012.1 |
| 20260501205203 | 68 | 298 | 6.0 | 9.0 | 0.00 | 0.00 | 0.00 | 37 | 1012.1 |
| 20260501205103 | 68 | 308 | 2.0 | 9.0 | 0.00 | 0.00 | 0.00 | 37 | 1012.1 |
| 20260501205005 | 68 | 312 | 4.0 | 9.0 | 0.00 | 0.00 | 0.00 | 37 | 1012.1 |
| 20260501204904 | 68 | 317 | 3.0 | 9.0 | 0.00 | 0.00 | 0.00 | 37 | 1012.1 |
| 20260501204804 | 68 | 318 | 6.0 | 9.0 | 0.00 | 0.00 | 0.00 | 37 | 1012.1 |
| 20260501204703 | 68 | 323 | 7.0 | 9.0 | 0.00 | 0.00 | 0.00 | 37 | 1012.1 |
| 20260501204503 | 68 | 332 | 5.0 | 6.0 | 0.00 | 0.00 | 0.00 | 37 | 1012.1 |
| 20260501204304 | 68 | 330 | 1.0 | 6.0 | 0.00 | 0.00 | 0.00 | 37 | 1012.1 |
| 20260501204204 | 68 | 334 | 2.0 | 6.0 | 0.00 | 0.00 | 0.00 | 37 | 1012.1 |
| 20260501204103 | 68 | 331 | 3.0 | 6.0 | 0.00 | 0.00 | 0.00 | 37 | 1012.1 |
| 20260501204004 | 68 | 332 | 3.0 | 6.0 | 0.00 | 0.00 | 0.00 | 37 | 1012.1 |
| 20260501203903 | 68 | 337 | 4.0 | 6.0 | 0.00 | 0.00 | 0.00 | 37 | 1012.1 |
| 20260501203803 | 68 | 357 | 3.0 | 6.0 | 0.00 | 0.00 | 0.00 | 38 | 1012.1 |
| 20260501203703 | 68 | 16 | 4.0 | 6.0 | 0.00 | 0.00 | 0.00 | 37 | 1012.1 |
| 20260501203604 | 68 | 23 | 5.0 | 6.0 | 0.00 | 0.00 | 0.00 | 37 | 1012.1 |
| 20260501203503 | 67 | 44 | 2.0 | 6.0 | 0.00 | 0.00 | 0.00 | 38 | 1012.1 |
| 20260501203303 | 68 | 66 | 5.0 | 6.0 | 0.00 | 0.00 | 0.00 | 39 | 1012.1 |
| 20260501203203 | 68 | 150 | 3.0 | 6.0 | 0.00 | 0.00 | 0.00 | 38 | 1012.1 |
| 20260501203103 | 68 | 142 | 1.0 | 6.0 | 0.00 | 0.00 | 0.00 | 39 | 1012.1 |
| 20260501203003 | 68 | 137 | 4.0 | 6.0 | 0.00 | 0.00 | 0.00 | 39 | 1012.1 |
| 20260501202903 | 67 | 142 | 4.0 | 6.0 | 0.00 | 0.00 | 0.00 | 39 | 1012.1 |
| 20260501202803 | 67 | 312 | 1.0 | 6.0 | 0.00 | 0.00 | 0.00 | 38 | 1012.1 |
| 20260501202703 | 67 | 334 | 0.0 | 5.0 | 0.00 | 0.00 | 0.00 | 38 | 1012.1 |
| 20260501202604 | 67 | 4 | 0.0 | 5.0 | 0.00 | 0.00 | 0.00 | 39 | 1012.1 |
| 20260501202503 | 67 | 12 | 0.0 | 5.0 | 0.00 | 0.00 | 0.00 | 39 | 1011.0 |
| 20260501202403 | 67 | 17 | 3.0 | 6.0 | 0.00 | 0.00 | 0.00 | 40 | 1011.0 |
| 20260501202306 | 67 | 23 | 3.0 | 6.0 | 0.00 | 0.00 | 0.00 | 40 | 1011.0 |
| 20260501202203 | 66 | 30 | 0.0 | 6.0 | 0.00 | 0.00 | 0.00 | 39 | 1011.0 |
| 20260501202104 | 66 | 30 | 1.0 | 6.0 | 0.00 | 0.00 | 0.00 | 38 | 1011.0 |
| 20260501202003 | 66 | 30 | 1.0 | 6.0 | 0.00 | 0.00 | 0.00 | 38 | 1011.0 |
| 20260501201903 | 66 | 31 | 3.0 | 6.0 | 0.00 | 0.00 | 0.00 | 38 | 1011.0 |
| 20260501201803 | 66 | 30 | 3.0 | 6.0 | 0.00 | 0.00 | 0.00 | 38 | 1011.0 |
| 20260501201704 | 66 | 29 | 4.0 | 6.0 | 0.00 | 0.00 | 0.00 | 38 | 1011.0 |
| 20260501201604 | 66 | 26 | 4.0 | 6.0 | 0.00 | 0.00 | 0.00 | 38 | 1011.0 |
| 20260501201403 | 66 | 16 | 4.0 | 6.0 | 0.00 | 0.00 | 0.00 | 39 | 1011.0 |
| 20260501201303 | 66 | 358 | 4.0 | 5.0 | 0.00 | 0.00 | 0.00 | 39 | 1011.0 |
| 20260501201203 | 66 | 302 | 3.0 | 8.0 | 0.00 | 0.00 | 0.00 | 39 | 1011.0 |
| 20260501201103 | 66 | 282 | 1.0 | 8.0 | 0.00 | 0.00 | 0.00 | 39 | 1011.0 |
| 20260501200804 | 66 | 275 | 1.0 | 8.0 | 0.00 | 0.00 | 0.00 | 39 | 1012.1 |
| 20260501200704 | 66 | 272 | 3.0 | 8.0 | 0.00 | 0.00 | 0.00 | 39 | 1012.1 |
| 20260501200603 | 66 | 273 | 2.0 | 8.0 | 0.00 | 0.00 | 0.00 | 39 | 1012.1 |
| 20260501200503 | 66 | 282 | 0.0 | 8.0 | 0.00 | 0.00 | 0.00 | 39 | 1012.1 |
| 20260501200403 | 66 | 285 | 4.0 | 8.0 | 0.00 | 0.00 | 0.00 | 39 | 1012.1 |
| 20260501200303 | 66 | 292 | 5.0 | 8.0 | 0.00 | 0.00 | 0.00 | 39 | 1012.1 |
| 20260501200004 | 65 | 327 | 3.0 | 7.0 | 0.00 | 0.00 | 0.00 | 39 | 1012.1 |
| 20260501195904 | 65 | 331 | 3.0 | 7.0 | 0.00 | 0.00 | 0.00 | 39 | 1012.1 |
| 20260501195803 | 65 | 345 | 0.0 | 5.0 | 0.00 | 0.00 | 0.00 | 39 | 1012.1 |
| 20260501195703 | 65 | 6 | 1.0 | 6.0 | 0.00 | 0.00 | 0.00 | 39 | 1012.1 |
| 20260501195603 | 65 | 16 | 3.0 | 6.0 | 0.00 | 0.00 | 0.00 | 39 | 1012.1 |
| 20260501195404 | 65 | 24 | 3.0 | 7.0 | 0.00 | 0.00 | 0.00 | 38 | 1012.1 |
| 20260501195306 | 65 | 27 | 0.0 | 7.0 | 0.00 | 0.00 | 0.00 | 39 | 1012.1 |
| 20260501195203 | 65 | 28 | 3.0 | 7.0 | 0.00 | 0.00 | 0.00 | 40 | 1012.1 |
| 20260501195103 | 65 | 24 | 1.0 | 7.0 | 0.00 | 0.00 | 0.00 | 40 | 1012.1 |
| 20260501195003 | 65 | 10 | 0.0 | 7.0 | 0.00 | 0.00 | 0.00 | 40 | 1012.1 |
| 20260501194903 | 65 | 4 | 2.0 | 7.0 | 0.00 | 0.00 | 0.00 | 39 | 1012.1 |
| 20260501194803 | 65 | 4 | 4.0 | 7.0 | 0.00 | 0.00 | 0.00 | 39 | 1012.1 |
| 20260501194703 | 65 | 4 | 4.0 | 7.0 | 0.00 | 0.00 | 0.00 | 39 | 1012.1 |
| 20260501194503 | 65 | 353 | 6.0 | 7.0 | 0.00 | 0.00 | 0.00 | 39 | 1012.1 |
| 20260501194403 | 65 | 6 | 0.0 | 6.0 | 0.00 | 0.00 | 0.00 | 40 | 1012.1 |
| 20260501194303 | 64 | 10 | 3.0 | 6.0 | 0.00 | 0.00 | 0.00 | 40 | 1012.1 |
| 20260501194204 | 64 | 10 | 1.0 | 6.0 | 0.00 | 0.00 | 0.00 | 40 | 1012.1 |
| 20260501194104 | 64 | 12 | 4.0 | 6.0 | 0.00 | 0.00 | 0.00 | 40 | 1012.1 |
| 20260501193804 | 64 | 41 | 4.0 | 6.0 | 0.00 | 0.00 | 0.00 | 40 | 1012.1 |
| 20260501193603 | 65 | 339 | 3.0 | 6.0 | 0.00 | 0.00 | 0.00 | 41 | 1012.1 |
| 20260501193503 | 64 | 321 | 4.0 | 6.0 | 0.00 | 0.00 | 0.00 | 41 | 1012.1 |
| 20260501193404 | 64 | 313 | 0.0 | 8.0 | 0.00 | 0.00 | 0.00 | 41 | 1012.1 |
| 20260501193303 | 64 | 311 | 0.0 | 8.0 | 0.00 | 0.00 | 0.00 | 41 | 1012.1 |
| 20260501193203 | 64 | 312 | 0.0 | 8.0 | 0.00 | 0.00 | 0.00 | 42 | 1012.1 |
| 20260501193103 | 64 | 310 | 0.0 | 8.0 | 0.00 | 0.00 | 0.00 | 42 | 1012.1 |
| 20260501193003 | 64 | 309 | 4.0 | 8.0 | 0.00 | 0.00 | 0.00 | 42 | 1012.1 |
| 20260501192803 | 64 | 320 | 3.0 | 8.0 | 0.00 | 0.00 | 0.00 | 42 | 1012.1 |
| 20260501192703 | 64 | 322 | 4.0 | 8.0 | 0.00 | 0.00 | 0.00 | 41 | 1012.1 |
| 20260501192603 | 64 | 326 | 4.0 | 8.0 | 0.00 | 0.00 | 0.00 | 41 | 1012.1 |
| 20260501192504 | 64 | 333 | 5.0 | 8.0 | 0.00 | 0.00 | 0.00 | 41 | 1012.1 |
| 20260501192403 | 64 | 339 | 5.0 | 8.0 | 0.00 | 0.00 | 0.00 | 40 | 1012.1 |
| 20260501192306 | 64 | 346 | 7.0 | 8.0 | 0.00 | 0.00 | 0.00 | 42 | 1012.1 |
| 20260501192103 | 64 | 75 | 1.0 | 7.0 | 0.00 | 0.00 | 0.00 | 42 | 1012.1 |
| 20260501192004 | 64 | 83 | 0.0 | 9.0 | 0.00 | 0.00 | 0.00 | 42 | 1012.1 |
| 20260501191903 | 64 | 79 | 4.0 | 9.0 | 0.00 | 0.00 | 0.00 | 41 | 1012.1 |
| 20260501191803 | 64 | 78 | 2.0 | 9.0 | 0.00 | 0.00 | 0.00 | 45 | 1012.1 |
| 20260501191703 | 64 | 80 | 3.0 | 9.0 | 0.00 | 0.00 | 0.00 | 46 | 1012.1 |
| 20260501191603 | 64 | 85 | 3.0 | 9.0 | 0.00 | 0.00 | 0.00 | 46 | 1012.1 |
| 20260501191504 | 64 | 84 | 2.0 | 9.0 | 0.00 | 0.00 | 0.00 | 45 | 1012.1 |
| 20260501191404 | 64 | 79 | 3.0 | 9.0 | 0.00 | 0.00 | 0.00 | 45 | 1012.1 |
| 20260501191304 | 64 | 79 | 6.0 | 9.0 | 0.00 | 0.00 | 0.00 | 46 | 1012.1 |
| 20260501191204 | 64 | 74 | 6.0 | 9.0 | 0.00 | 0.00 | 0.00 | 46 | 1012.1 |
| 20260501191104 | 63 | 68 | 7.0 | 9.0 | 0.00 | 0.00 | 0.00 | 45 | 1012.1 |
| 20260501191004 | 63 | 62 | 5.0 | 7.0 | 0.00 | 0.00 | 0.00 | 45 | 1012.1 |
| 20260501190903 | 63 | 64 | 3.0 | 7.0 | 0.00 | 0.00 | 0.00 | 45 | 1012.1 |
| 20260501190803 | 63 | 73 | 6.0 | 7.0 | 0.00 | 0.00 | 0.00 | 45 | 1012.1 |
| 20260501190704 | 63 | 73 | 3.0 | 7.0 | 0.00 | 0.00 | 0.00 | 45 | 1012.1 |
| 20260501190503 | 63 | 73 | 3.0 | 7.0 | 0.00 | 0.00 | 0.00 | 45 | 1012.1 |
| 20260501190403 | 63 | 82 | 3.0 | 7.0 | 0.00 | 0.00 | 0.00 | 46 | 1012.1 |
| 20260501190204 | 63 | 84 | 4.0 | 7.0 | 0.00 | 0.00 | 0.00 | 46 | 1012.1 |
| 20260501190104 | 63 | 94 | 2.0 | 12.0 | 0.00 | 0.00 | 0.00 | 46 | 1012.1 |
| 20260501185904 | 63 | 97 | 4.0 | 12.0 | 0.00 | 0.00 | 0.00 | 46 | 1012.1 |
| 20260501185704 | 63 | 111 | 6.0 | 12.0 | 0.00 | 0.00 | 0.00 | 46 | 1012.1 |
| 20260501185603 | 63 | 115 | 3.0 | 12.0 | 0.00 | 0.00 | 0.00 | 47 | 1012.1 |
| 20260501185503 | 63 | 117 | 6.0 | 12.0 | 0.00 | 0.00 | 0.00 | 47 | 1013.2 |
| 20260501185403 | 63 | 112 | 4.0 | 12.0 | 0.00 | 0.00 | 0.00 | 47 | 1013.2 |
| 20260501185306 | 63 | 112 | 6.0 | 12.0 | 0.00 | 0.00 | 0.00 | 47 | 1013.2 |
| 20260501185204 | 63 | 115 | 9.0 | 12.0 | 0.00 | 0.00 | 0.00 | 48 | 1013.2 |
| 20260501185104 | 63 | 114 | 1.0 | 10.0 | 0.00 | 0.00 | 0.00 | 48 | 1013.2 |
| 20260501184904 | 63 | 110 | 4.0 | 10.0 | 0.00 | 0.00 | 0.00 | 49 | 1013.2 |
| 20260501184804 | 63 | 102 | 6.0 | 10.0 | 0.00 | 0.00 | 0.00 | 48 | 1013.2 |
| 20260501184704 | 63 | 98 | 6.0 | 10.0 | 0.00 | 0.00 | 0.00 | 48 | 1013.2 |
| 20260501184604 | 62 | 93 | 9.0 | 10.0 | 0.00 | 0.00 | 0.00 | 48 | 1013.2 |
| 20260501184504 | 62 | 84 | 8.0 | 10.0 | 0.00 | 0.00 | 0.00 | 48 | 1013.2 |
| 20260501184404 | 62 | 72 | 6.0 | 9.0 | 0.00 | 0.00 | 0.00 | 47 | 1013.2 |
| 20260501184304 | 62 | 42 | 3.0 | 9.0 | 0.00 | 0.00 | 0.00 | 47 | 1013.2 |
| 20260501184204 | 62 | 30 | 2.0 | 6.0 | 0.00 | 0.00 | 0.00 | 47 | 1013.2 |
| 20260501184103 | 62 | 39 | 2.0 | 6.0 | 0.00 | 0.00 | 0.00 | 47 | 1013.2 |
| 20260501184004 | 62 | 38 | 0.0 | 6.0 | 0.00 | 0.00 | 0.00 | 46 | 1013.2 |
| 20260501183904 | 62 | 36 | 3.0 | 6.0 | 0.00 | 0.00 | 0.00 | 47 | 1013.2 |
| 20260501183803 | 62 | 44 | 0.0 | 6.0 | 0.00 | 0.00 | 0.00 | 47 | 1013.2 |
| 20260501183403 | 62 | 50 | 4.0 | 6.0 | 0.00 | 0.00 | 0.00 | 47 | 1013.2 |
| 20260501183303 | 62 | 53 | 4.0 | 5.0 | 0.00 | 0.00 | 0.00 | 47 | 1013.2 |
| 20260501183203 | 62 | 60 | 4.0 | 5.0 | 0.00 | 0.00 | 0.00 | 47 | 1013.2 |
| 20260501183103 | 62 | 63 | 3.0 | 6.0 | 0.00 | 0.00 | 0.00 | 48 | 1013.2 |
| 20260501183005 | 62 | 65 | 3.0 | 6.0 | 0.00 | 0.00 | 0.00 | 48 | 1013.2 |
| 20260501182803 | 61 | 84 | 3.0 | 6.0 | 0.00 | 0.00 | 0.00 | 48 | 1013.2 |
| 20260501182703 | 61 | 87 | 3.0 | 6.0 | 0.00 | 0.00 | 0.00 | 48 | 1013.2 |
| 20260501182603 | 61 | 92 | 1.0 | 6.0 | 0.00 | 0.00 | 0.00 | 48 | 1013.2 |
| 20260501182504 | 61 | 105 | 1.0 | 6.0 | 0.00 | 0.00 | 0.00 | 48 | 1013.2 |
| 20260501182306 | 61 | 140 | 4.0 | 8.0 | 0.00 | 0.00 | 0.00 | 48 | 1013.2 |
| 20260501182203 | 61 | 154 | 4.0 | 8.0 | 0.00 | 0.00 | 0.00 | 49 | 1013.2 |
| 20260501182103 | 61 | 166 | 4.0 | 8.0 | 0.00 | 0.00 | 0.00 | 49 | 1013.2 |
| 20260501182003 | 61 | 166 | 1.0 | 8.0 | 0.00 | 0.00 | 0.00 | 51 | 1013.2 |
| 20260501181903 | 61 | 170 | 1.0 | 8.0 | 0.00 | 0.00 | 0.00 | 51 | 1013.2 |
| 20260501181803 | 61 | 173 | 0.0 | 8.0 | 0.00 | 0.00 | 0.00 | 51 | 1013.2 |
| 20260501181703 | 61 | 175 | 1.0 | 8.0 | 0.00 | 0.00 | 0.00 | 51 | 1013.2 |
| 20260501181504 | 61 | 181 | 3.0 | 8.0 | 0.00 | 0.00 | 0.00 | 51 | 1013.2 |
| 20260501181404 | 61 | 181 | 5.0 | 6.0 | 0.00 | 0.00 | 0.00 | 51 | 1013.2 |
| 20260501181303 | 61 | 174 | 3.0 | 5.0 | 0.00 | 0.00 | 0.00 | 51 | 1013.2 |
| 20260501181203 | 60 | 176 | 4.0 | 8.0 | 0.00 | 0.00 | 0.00 | 49 | 1013.2 |
| 20260501181103 | 60 | 179 | 4.0 | 8.0 | 0.00 | 0.00 | 0.00 | 51 | 1013.2 |
| 20260501181004 | 60 | 187 | 3.0 | 8.0 | 0.00 | 0.00 | 0.00 | 51 | 1013.2 |
| 20260501180803 | 60 | 186 | 2.0 | 8.0 | 0.00 | 0.00 | 0.00 | 51 | 1013.2 |
| 20260501180703 | 60 | 179 | 4.0 | 8.0 | 0.00 | 0.00 | 0.00 | 51 | 1013.2 |
| 20260501180604 | 60 | 175 | 3.0 | 8.0 | 0.00 | 0.00 | 0.00 | 51 | 1013.2 |
| 20260501180503 | 60 | 160 | 4.0 | 8.0 | 0.00 | 0.00 | 0.00 | 51 | 1013.2 |
| 20260501180403 | 60 | 156 | 2.0 | 8.0 | 0.00 | 0.00 | 0.00 | 51 | 1013.2 |
| 20260501180303 | 60 | 154 | 6.0 | 8.0 | 0.00 | 0.00 | 0.00 | 51 | 1013.2 |
| 20260501180203 | 60 | 146 | 0.0 | 7.0 | 0.00 | 0.00 | 0.00 | 51 | 1013.2 |
| 20260501180104 | 60 | 139 | 2.0 | 7.0 | 0.00 | 0.00 | 0.00 | 51 | 1013.2 |
| 20260501180004 | 60 | 136 | 3.0 | 8.0 | 0.00 | 0.00 | 0.00 | 51 | 1013.2 |
| 20260501175903 | 60 | 127 | 1.0 | 8.0 | 0.00 | 0.00 | 0.00 | 51 | 1013.2 |
| 20260501175804 | 60 | 119 | 3.0 | 8.0 | 0.00 | 0.00 | 0.00 | 51 | 1013.2 |
| 20260501175503 | 60 | 131 | 4.0 | 8.0 | 0.00 | 0.00 | 0.00 | 52 | 1014.3 |
| 20260501175403 | 60 | 132 | 2.0 | 8.0 | 0.00 | 0.00 | 0.00 | 52 | 1014.3 |
| 20260501175306 | 60 | 130 | 5.0 | 8.0 | 0.00 | 0.00 | 0.00 | 52 | 1014.3 |
| 20260501175203 | 60 | 123 | 1.0 | 8.0 | 0.00 | 0.00 | 0.00 | 52 | 1014.3 |
| 20260501175104 | 60 | 113 | 5.0 | 8.0 | 0.00 | 0.00 | 0.00 | 52 | 1014.3 |
| 20260501175004 | 60 | 110 | 7.0 | 8.0 | 0.00 | 0.00 | 0.00 | 51 | 1014.3 |
| 20260501174903 | 60 | 111 | 5.0 | 7.0 | 0.00 | 0.00 | 0.00 | 51 | 1014.3 |
| 20260501174804 | 59 | 116 | 3.0 | 7.0 | 0.00 | 0.00 | 0.00 | 52 | 1014.3 |
| 20260501174603 | 59 | 82 | 3.0 | 7.0 | 0.00 | 0.00 | 0.00 | 51 | 1014.3 |
| 20260501174503 | 59 | 44 | 4.0 | 7.0 | 0.00 | 0.00 | 0.00 | 51 | 1014.3 |
| 20260501174304 | 59 | 346 | 4.0 | 6.0 | 0.00 | 0.00 | 0.00 | 49 | 1014.3 |
| 20260501174204 | 59 | 336 | 4.0 | 6.0 | 0.00 | 0.00 | 0.00 | 51 | 1014.3 |
| 20260501174003 | 59 | 318 | 0.0 | 6.0 | 0.00 | 0.00 | 0.00 | 49 | 1013.2 |
| 20260501173903 | 59 | 317 | 3.0 | 6.0 | 0.00 | 0.00 | 0.00 | 49 | 1013.2 |
| 20260501173803 | 59 | 317 | 3.0 | 6.0 | 0.00 | 0.00 | 0.00 | 49 | 1013.2 |
| 20260501173703 | 59 | 317 | 3.0 | 6.0 | 0.00 | 0.00 | 0.00 | 51 | 1013.2 |
| 20260501173603 | 59 | 318 | 4.0 | 6.0 | 0.00 | 0.00 | 0.00 | 51 | 1013.2 |
| 20260501173504 | 58 | 314 | 3.0 | 6.0 | 0.00 | 0.00 | 0.00 | 51 | 1013.2 |
| 20260501173204 | 58 | 300 | 5.0 | 6.0 | 0.00 | 0.00 | 0.00 | 51 | 1013.2 |
| 20260501173104 | 58 | 261 | 4.0 | 6.0 | 0.00 | 0.00 | 0.00 | 51 | 1013.2 |
| 20260501173004 | 58 | 145 | 1.0 | 4.0 | 0.00 | 0.00 | 0.00 | 52 | 1013.2 |
| 20260501172904 | 58 | 152 | 0.0 | 4.0 | 0.00 | 0.00 | 0.00 | 53 | 1013.2 |
| 20260501172803 | 58 | 165 | 0.0 | 4.0 | 0.00 | 0.00 | 0.00 | 53 | 1013.2 |
| 20260501172703 | 58 | 166 | 0.0 | 4.0 | 0.00 | 0.00 | 0.00 | 53 | 1013.2 |
| 20260501172603 | 58 | 166 | 0.0 | 4.0 | 0.00 | 0.00 | 0.00 | 53 | 1013.2 |
| 20260501172504 | 58 | 161 | 0.0 | 4.0 | 0.00 | 0.00 | 0.00 | 53 | 1013.2 |
| 20260501172403 | 58 | 136 | 3.0 | 6.0 | 0.00 | 0.00 | 0.00 | 53 | 1013.2 |
| 20260501172103 | 57 | 72 | 1.0 | 6.0 | 0.00 | 0.00 | 0.00 | 52 | 1013.2 |
| 20260501172004 | 57 | 64 | 2.0 | 6.0 | 0.00 | 0.00 | 0.00 | 52 | 1013.2 |